<?xml version='1.0' encoding='UTF-8'?><gpx version="1.1" creator="JPX - https://github.com/jenetics/jpx" xmlns="http://www.topografix.com/GPX/1/1"><trk><trkseg><trkpt lat="45.94785" lon="10.2758264"><ele>287.0</ele><time>2026-04-11T08:27:43.87Z</time></trkpt><trkpt lat="45.9479271" lon="10.275699"><ele>287.0</ele><time>2026-04-11T08:27:45.87Z</time></trkpt><trkpt lat="45.9481165" lon="10.2754988"><ele>287.0</ele><time>2026-04-11T08:27:47.87Z</time></trkpt><trkpt lat="45.9481707" lon="10.2754185"><ele>287.0</ele><time>2026-04-11T08:27:48.869Z</time></trkpt><trkpt lat="45.9482258" lon="10.2753474"><ele>287.75</ele><time>2026-04-11T08:27:49.871Z</time></trkpt><trkpt lat="45.9483062" lon="10.2752521"><ele>288.5</ele><time>2026-04-11T08:27:50.871Z</time></trkpt><trkpt lat="45.9484154" lon="10.2751513"><ele>289.25</ele><time>2026-04-11T08:27:51.869Z</time></trkpt><trkpt lat="45.9484783" lon="10.2750366"><ele>290.0</ele><time>2026-04-11T08:27:52.87Z</time></trkpt><trkpt lat="45.9485543" lon="10.2748664"><ele>292.25</ele><time>2026-04-11T08:27:53.87Z</time></trkpt><trkpt lat="45.9486379" lon="10.2747329"><ele>294.5</ele><time>2026-04-11T08:27:54.87Z</time></trkpt><trkpt lat="45.9487414" lon="10.2745838"><ele>296.75</ele><time>2026-04-11T08:27:56.869Z</time></trkpt><trkpt lat="45.9487981" lon="10.2744836"><ele>299.0</ele><time>2026-04-11T08:27:57.87Z</time></trkpt><trkpt lat="45.9489117" lon="10.2743121"><ele>299.0</ele><time>2026-04-11T08:27:58.87Z</time></trkpt><trkpt lat="45.9490321" lon="10.2741498"><ele>299.0</ele><time>2026-04-11T08:27:59.87Z</time></trkpt><trkpt lat="45.94916" lon="10.2739382"><ele>299.0</ele><time>2026-04-11T08:28:00.87Z</time></trkpt><trkpt lat="45.9492827" lon="10.2737375"><ele>301.6666666666667</ele><time>2026-04-11T08:28:01.869Z</time></trkpt><trkpt lat="45.9494161" lon="10.2735543"><ele>304.3333333333333</ele><time>2026-04-11T08:28:02.871Z</time></trkpt><trkpt lat="45.9495368" lon="10.2733659"><ele>307.0</ele><time>2026-04-11T08:28:03.87Z</time></trkpt><trkpt lat="45.9496632" lon="10.2731931"><ele>308.25</ele><time>2026-04-11T08:28:04.869Z</time></trkpt><trkpt lat="45.9497696" lon="10.2730301"><ele>309.5</ele><time>2026-04-11T08:28:05.87Z</time></trkpt><trkpt lat="45.9498638" lon="10.2728916"><ele>310.75</ele><time>2026-04-11T08:28:06.871Z</time></trkpt><trkpt lat="45.9499598" lon="10.2727774"><ele>312.0</ele><time>2026-04-11T08:28:07.87Z</time></trkpt><trkpt lat="45.9500292" lon="10.2726724"><ele>313.25</ele><time>2026-04-11T08:28:08.871Z</time></trkpt><trkpt lat="45.9500874" lon="10.2725451"><ele>314.5</ele><time>2026-04-11T08:28:10.869Z</time></trkpt><trkpt lat="45.9501944" lon="10.2726954"><ele>315.75</ele><time>2026-04-11T08:28:11.871Z</time></trkpt><trkpt lat="45.9503085" lon="10.2728441"><ele>317.0</ele><time>2026-04-11T08:28:12.871Z</time></trkpt><trkpt lat="45.9503993" lon="10.272943"><ele>317.0</ele><time>2026-04-11T08:28:13.87Z</time></trkpt><trkpt lat="45.9505003" lon="10.2730443"><ele>317.0</ele><time>2026-04-11T08:28:14.869Z</time></trkpt><trkpt lat="45.9506044" lon="10.2731348"><ele>317.0</ele><time>2026-04-11T08:28:15.87Z</time></trkpt><trkpt lat="45.9506992" lon="10.2732302"><ele>317.0</ele><time>2026-04-11T08:28:16.87Z</time></trkpt><trkpt lat="45.9507717" lon="10.2733249"><ele>315.6666666666667</ele><time>2026-04-11T08:28:17.869Z</time></trkpt><trkpt lat="45.9507976" lon="10.27341"><ele>314.33333333333337</ele><time>2026-04-11T08:28:18.87Z</time></trkpt><trkpt lat="45.9508345" lon="10.2734886"><ele>313.0</ele><time>2026-04-11T08:28:19.87Z</time></trkpt><trkpt lat="45.9509136" lon="10.2735697"><ele>311.6666666666667</ele><time>2026-04-11T08:28:21.87Z</time></trkpt><trkpt lat="45.9510153" lon="10.2735006"><ele>310.3333333333333</ele><time>2026-04-11T08:28:23.871Z</time></trkpt><trkpt lat="45.9510733" lon="10.2734557"><ele>309.0</ele><time>2026-04-11T08:28:24.869Z</time></trkpt><trkpt lat="45.9511553" lon="10.2733062"><ele>310.75</ele><time>2026-04-11T08:28:26.871Z</time></trkpt><trkpt lat="45.9512435" lon="10.2730965"><ele>312.5</ele><time>2026-04-11T08:28:27.869Z</time></trkpt><trkpt lat="45.9512605" lon="10.2729788"><ele>314.25</ele><time>2026-04-11T08:28:28.87Z</time></trkpt><trkpt lat="45.9513053" lon="10.2727983"><ele>316.0</ele><time>2026-04-11T08:28:29.87Z</time></trkpt><trkpt lat="45.9513346" lon="10.2726872"><ele>316.0</ele><time>2026-04-11T08:28:30.87Z</time></trkpt><trkpt lat="45.9513683" lon="10.2725849"><ele>316.0</ele><time>2026-04-11T08:28:31.869Z</time></trkpt><trkpt lat="45.9514438" lon="10.2723925"><ele>316.0</ele><time>2026-04-11T08:28:33.87Z</time></trkpt><trkpt lat="45.9514743" lon="10.2722707"><ele>316.0</ele><time>2026-04-11T08:28:34.87Z</time></trkpt><trkpt lat="45.9515232" lon="10.2720774"><ele>318.25</ele><time>2026-04-11T08:28:35.87Z</time></trkpt><trkpt lat="45.9515636" lon="10.2718061"><ele>320.5</ele><time>2026-04-11T08:28:37.871Z</time></trkpt><trkpt lat="45.9515861" lon="10.2716383"><ele>322.75</ele><time>2026-04-11T08:28:38.87Z</time></trkpt><trkpt lat="45.9516263" lon="10.2714986"><ele>325.0</ele><time>2026-04-11T08:28:39.871Z</time></trkpt><trkpt lat="45.9516419" lon="10.2713498"><ele>325.3333333333333</ele><time>2026-04-11T08:28:40.87Z</time></trkpt><trkpt lat="45.9516657" lon="10.2712281"><ele>325.66666666666663</ele><time>2026-04-11T08:28:41.87Z</time></trkpt><trkpt lat="45.9516482" lon="10.2711286"><ele>326.0</ele><time>2026-04-11T08:28:42.869Z</time></trkpt><trkpt lat="45.9516333" lon="10.2709394"><ele>326.3333333333333</ele><time>2026-04-11T08:28:44.871Z</time></trkpt><trkpt lat="45.9516585" lon="10.2708368"><ele>326.6666666666667</ele><time>2026-04-11T08:28:46.869Z</time></trkpt><trkpt lat="45.9517228" lon="10.2708088"><ele>327.0</ele><time>2026-04-11T08:28:47.87Z</time></trkpt><trkpt lat="45.9518149" lon="10.2707646"><ele>327.0</ele><time>2026-04-11T08:28:50.869Z</time></trkpt><trkpt lat="45.9519221" lon="10.2706665"><ele>327.0</ele><time>2026-04-11T08:28:52.87Z</time></trkpt><trkpt lat="45.9520096" lon="10.2705996"><ele>327.0</ele><time>2026-04-11T08:28:54.87Z</time></trkpt><trkpt lat="45.952111" lon="10.2705927"><ele>327.0</ele><time>2026-04-11T08:28:55.87Z</time></trkpt><trkpt lat="45.9521802" lon="10.2705508"><ele>327.0</ele><time>2026-04-11T08:28:56.87Z</time></trkpt><trkpt lat="45.9522763" lon="10.2705195"><ele>328.0</ele><time>2026-04-11T08:28:57.87Z</time></trkpt><trkpt lat="45.9523364" lon="10.2704839"><ele>329.0</ele><time>2026-04-11T08:28:58.87Z</time></trkpt><trkpt lat="45.9524559" lon="10.2704406"><ele>330.0</ele><time>2026-04-11T08:29:00.87Z</time></trkpt><trkpt lat="45.9525909" lon="10.270416"><ele>331.0</ele><time>2026-04-11T08:29:02.871Z</time></trkpt><trkpt lat="45.952653" lon="10.2705642"><ele>332.0</ele><time>2026-04-11T08:29:05.87Z</time></trkpt><trkpt lat="45.9527193" lon="10.270606"><ele>332.8</ele><time>2026-04-11T08:29:06.87Z</time></trkpt><trkpt lat="45.952804" lon="10.2706959"><ele>333.6</ele><time>2026-04-11T08:29:07.869Z</time></trkpt><trkpt lat="45.9529752" lon="10.2707552"><ele>334.40000000000003</ele><time>2026-04-11T08:29:09.87Z</time></trkpt><trkpt lat="45.9530416" lon="10.2707772"><ele>335.20000000000005</ele><time>2026-04-11T08:29:10.871Z</time></trkpt><trkpt lat="45.9531168" lon="10.2708401"><ele>336.0</ele><time>2026-04-11T08:29:12.871Z</time></trkpt><trkpt lat="45.9531863" lon="10.2709385"><ele>336.0</ele><time>2026-04-11T08:29:13.87Z</time></trkpt><trkpt lat="45.9532674" lon="10.2710163"><ele>336.0</ele><time>2026-04-11T08:29:14.87Z</time></trkpt><trkpt lat="45.9533241" lon="10.2711149"><ele>336.0</ele><time>2026-04-11T08:29:15.869Z</time></trkpt><trkpt lat="45.9534043" lon="10.2712347"><ele>336.0</ele><time>2026-04-11T08:29:16.87Z</time></trkpt><trkpt lat="45.9534464" lon="10.2713602"><ele>336.0</ele><time>2026-04-11T08:29:17.87Z</time></trkpt><trkpt lat="45.953384" lon="10.2714603"><ele>334.8</ele><time>2026-04-11T08:29:18.871Z</time></trkpt><trkpt lat="45.9533518" lon="10.2715926"><ele>333.6</ele><time>2026-04-11T08:29:19.87Z</time></trkpt><trkpt lat="45.9533279" lon="10.271717"><ele>332.4</ele><time>2026-04-11T08:29:20.87Z</time></trkpt><trkpt lat="45.9533175" lon="10.2718625"><ele>331.2</ele><time>2026-04-11T08:29:21.87Z</time></trkpt><trkpt lat="45.9533007" lon="10.2719893"><ele>330.0</ele><time>2026-04-11T08:29:22.87Z</time></trkpt><trkpt lat="45.9533018" lon="10.2721225"><ele>330.0</ele><time>2026-04-11T08:29:23.87Z</time></trkpt><trkpt lat="45.9533408" lon="10.2722045"><ele>330.0</ele><time>2026-04-11T08:29:24.871Z</time></trkpt><trkpt lat="45.9533653" lon="10.2723254"><ele>330.0</ele><time>2026-04-11T08:29:25.87Z</time></trkpt><trkpt lat="45.9533837" lon="10.2724303"><ele>330.0</ele><time>2026-04-11T08:29:26.87Z</time></trkpt><trkpt lat="45.9533755" lon="10.2725308"><ele>330.0</ele><time>2026-04-11T08:29:27.87Z</time></trkpt><trkpt lat="45.9533323" lon="10.2726505"><ele>330.0</ele><time>2026-04-11T08:29:28.87Z</time></trkpt><trkpt lat="45.9532704" lon="10.2727945"><ele>330.25</ele><time>2026-04-11T08:29:29.871Z</time></trkpt><trkpt lat="45.953203" lon="10.2729309"><ele>330.5</ele><time>2026-04-11T08:29:30.871Z</time></trkpt><trkpt lat="45.9531346" lon="10.2730723"><ele>330.75</ele><time>2026-04-11T08:29:31.87Z</time></trkpt><trkpt lat="45.9530875" lon="10.2732371"><ele>331.0</ele><time>2026-04-11T08:29:32.87Z</time></trkpt><trkpt lat="45.9530539" lon="10.2733816"><ele>331.20000000000005</ele><time>2026-04-11T08:29:33.871Z</time></trkpt><trkpt lat="45.9530348" lon="10.2735356"><ele>331.40000000000003</ele><time>2026-04-11T08:29:34.871Z</time></trkpt><trkpt lat="45.9530221" lon="10.2736433"><ele>331.6</ele><time>2026-04-11T08:29:35.871Z</time></trkpt><trkpt lat="45.9530048" lon="10.2737834"><ele>331.8</ele><time>2026-04-11T08:29:36.871Z</time></trkpt><trkpt lat="45.9530014" lon="10.2739002"><ele>332.0</ele><time>2026-04-11T08:29:37.87Z</time></trkpt><trkpt lat="45.9530473" lon="10.2740256"><ele>331.40000000000003</ele><time>2026-04-11T08:29:38.869Z</time></trkpt><trkpt lat="45.9530863" lon="10.2741235"><ele>330.8</ele><time>2026-04-11T08:29:39.87Z</time></trkpt><trkpt lat="45.9531284" lon="10.2741933"><ele>330.2</ele><time>2026-04-11T08:29:40.869Z</time></trkpt><trkpt lat="45.9532501" lon="10.2742199"><ele>329.6</ele><time>2026-04-11T08:29:41.87Z</time></trkpt><trkpt lat="45.9533524" lon="10.274267"><ele>329.0</ele><time>2026-04-11T08:29:42.87Z</time></trkpt><trkpt lat="45.9533831" lon="10.2743969"><ele>338.0</ele><time>2026-04-11T08:29:43.871Z</time></trkpt><trkpt lat="45.9534588" lon="10.2745011"><ele>347.0</ele><time>2026-04-11T08:29:44.869Z</time></trkpt><trkpt lat="45.953517" lon="10.2746065"><ele>356.0</ele><time>2026-04-11T08:29:45.87Z</time></trkpt><trkpt lat="45.9535702" lon="10.2747779"><ele>365.0</ele><time>2026-04-11T08:29:46.871Z</time></trkpt><trkpt lat="45.9535303" lon="10.2749438"><ele>365.0</ele><time>2026-04-11T08:29:47.87Z</time></trkpt><trkpt lat="45.9535435" lon="10.2751361"><ele>365.0</ele><time>2026-04-11T08:29:48.869Z</time></trkpt><trkpt lat="45.9536016" lon="10.2753522"><ele>365.0</ele><time>2026-04-11T08:29:49.87Z</time></trkpt><trkpt lat="45.9536391" lon="10.2755262"><ele>365.0</ele><time>2026-04-11T08:29:50.871Z</time></trkpt><trkpt lat="45.9536783" lon="10.2757097"><ele>361.6</ele><time>2026-04-11T08:29:51.871Z</time></trkpt><trkpt lat="45.9537046" lon="10.2758595"><ele>358.2</ele><time>2026-04-11T08:29:52.87Z</time></trkpt><trkpt lat="45.9537621" lon="10.275982"><ele>354.79999999999995</ele><time>2026-04-11T08:29:53.87Z</time></trkpt><trkpt lat="45.953803" lon="10.2761224"><ele>351.4</ele><time>2026-04-11T08:29:54.87Z</time></trkpt><trkpt lat="45.9538518" lon="10.2762935"><ele>348.0</ele><time>2026-04-11T08:29:55.87Z</time></trkpt><trkpt lat="45.9538916" lon="10.2763931"><ele>343.4</ele><time>2026-04-11T08:29:56.869Z</time></trkpt><trkpt lat="45.9539506" lon="10.2765214"><ele>338.79999999999995</ele><time>2026-04-11T08:29:57.87Z</time></trkpt><trkpt lat="45.9539842" lon="10.2766686"><ele>334.2</ele><time>2026-04-11T08:29:58.87Z</time></trkpt><trkpt lat="45.9540005" lon="10.2768145"><ele>329.6</ele><time>2026-04-11T08:29:59.87Z</time></trkpt><trkpt lat="45.9540414" lon="10.2769525"><ele>325.0</ele><time>2026-04-11T08:30:00.87Z</time></trkpt><trkpt lat="45.9540808" lon="10.2770973"><ele>325.0</ele><time>2026-04-11T08:30:01.871Z</time></trkpt><trkpt lat="45.9541489" lon="10.2771851"><ele>325.0</ele><time>2026-04-11T08:30:02.87Z</time></trkpt><trkpt lat="45.9541393" lon="10.2772825"><ele>325.0</ele><time>2026-04-11T08:30:03.87Z</time></trkpt><trkpt lat="45.9541366" lon="10.2774178"><ele>325.0</ele><time>2026-04-11T08:30:04.871Z</time></trkpt><trkpt lat="45.9541262" lon="10.2775664"><ele>325.0</ele><time>2026-04-11T08:30:05.869Z</time></trkpt><trkpt lat="45.9541466" lon="10.277709"><ele>323.0</ele><time>2026-04-11T08:30:06.87Z</time></trkpt><trkpt lat="45.9541874" lon="10.2778447"><ele>321.0</ele><time>2026-04-11T08:30:07.869Z</time></trkpt><trkpt lat="45.9542173" lon="10.2779726"><ele>319.0</ele><time>2026-04-11T08:30:08.87Z</time></trkpt><trkpt lat="45.9542363" lon="10.27808"><ele>317.0</ele><time>2026-04-11T08:30:09.87Z</time></trkpt><trkpt lat="45.9542676" lon="10.2782247"><ele>315.0</ele><time>2026-04-11T08:30:10.871Z</time></trkpt><trkpt lat="45.9542742" lon="10.2783428"><ele>323.6666666666667</ele><time>2026-04-11T08:30:11.87Z</time></trkpt><trkpt lat="45.9542845" lon="10.2784618"><ele>332.3333333333333</ele><time>2026-04-11T08:30:12.87Z</time></trkpt><trkpt lat="45.9542921" lon="10.2785737"><ele>341.0</ele><time>2026-04-11T08:30:13.87Z</time></trkpt><trkpt lat="45.9542853" lon="10.2786831"><ele>349.66666666666663</ele><time>2026-04-11T08:30:14.871Z</time></trkpt><trkpt lat="45.9542715" lon="10.278774"><ele>358.3333333333333</ele><time>2026-04-11T08:30:15.87Z</time></trkpt><trkpt lat="45.9542604" lon="10.2789495"><ele>367.0</ele><time>2026-04-11T08:30:17.87Z</time></trkpt><trkpt lat="45.9543271" lon="10.2790945"><ele>367.40000000000003</ele><time>2026-04-11T08:30:19.87Z</time></trkpt><trkpt lat="45.9544043" lon="10.2792027"><ele>367.8</ele><time>2026-04-11T08:30:21.869Z</time></trkpt><trkpt lat="45.9544669" lon="10.2792937"><ele>368.2</ele><time>2026-04-11T08:30:22.869Z</time></trkpt><trkpt lat="45.9545001" lon="10.279417"><ele>368.6</ele><time>2026-04-11T08:30:23.871Z</time></trkpt><trkpt lat="45.9545355" lon="10.2795551"><ele>369.0</ele><time>2026-04-11T08:30:24.871Z</time></trkpt><trkpt lat="45.9546075" lon="10.2796972"><ele>364.6</ele><time>2026-04-11T08:30:25.87Z</time></trkpt><trkpt lat="45.9546737" lon="10.2798392"><ele>360.2</ele><time>2026-04-11T08:30:26.871Z</time></trkpt><trkpt lat="45.9547183" lon="10.2799641"><ele>355.8</ele><time>2026-04-11T08:30:27.87Z</time></trkpt><trkpt lat="45.9547658" lon="10.2800665"><ele>351.40000000000003</ele><time>2026-04-11T08:30:28.87Z</time></trkpt><trkpt lat="45.9547937" lon="10.2801866"><ele>347.0</ele><time>2026-04-11T08:30:29.871Z</time></trkpt><trkpt lat="45.9548157" lon="10.2802916"><ele>347.0</ele><time>2026-04-11T08:30:30.87Z</time></trkpt><trkpt lat="45.9548353" lon="10.2803987"><ele>347.0</ele><time>2026-04-11T08:30:31.869Z</time></trkpt><trkpt lat="45.9548791" lon="10.280483"><ele>347.0</ele><time>2026-04-11T08:30:32.871Z</time></trkpt><trkpt lat="45.9549089" lon="10.2805724"><ele>347.0</ele><time>2026-04-11T08:30:33.87Z</time></trkpt><trkpt lat="45.9549402" lon="10.2806527"><ele>347.0</ele><time>2026-04-11T08:30:34.869Z</time></trkpt><trkpt lat="45.9549447" lon="10.2807473"><ele>347.0</ele><time>2026-04-11T08:30:35.869Z</time></trkpt><trkpt lat="45.95498" lon="10.2808284"><ele>347.0</ele><time>2026-04-11T08:30:36.87Z</time></trkpt><trkpt lat="45.9549844" lon="10.2809223"><ele>347.75</ele><time>2026-04-11T08:30:37.871Z</time></trkpt><trkpt lat="45.9550372" lon="10.281054"><ele>348.5</ele><time>2026-04-11T08:30:38.871Z</time></trkpt><trkpt lat="45.9551137" lon="10.2811976"><ele>349.25</ele><time>2026-04-11T08:30:39.87Z</time></trkpt><trkpt lat="45.9551848" lon="10.2813364"><ele>350.0</ele><time>2026-04-11T08:30:40.869Z</time></trkpt><trkpt lat="45.9552422" lon="10.2814705"><ele>350.0</ele><time>2026-04-11T08:30:41.871Z</time></trkpt><trkpt lat="45.955289" lon="10.2815834"><ele>350.0</ele><time>2026-04-11T08:30:42.871Z</time></trkpt><trkpt lat="45.9553444" lon="10.2816955"><ele>350.0</ele><time>2026-04-11T08:30:43.87Z</time></trkpt><trkpt lat="45.9554347" lon="10.281822"><ele>350.0</ele><time>2026-04-11T08:30:44.87Z</time></trkpt><trkpt lat="45.9554911" lon="10.2819833"><ele>350.0</ele><time>2026-04-11T08:30:46.869Z</time></trkpt><trkpt lat="45.9555507" lon="10.2821083"><ele>350.0</ele><time>2026-04-11T08:30:48.871Z</time></trkpt><trkpt lat="45.9556178" lon="10.2821989"><ele>350.0</ele><time>2026-04-11T08:30:49.871Z</time></trkpt><trkpt lat="45.9556966" lon="10.282279"><ele>350.0</ele><time>2026-04-11T08:30:50.87Z</time></trkpt><trkpt lat="45.9557701" lon="10.282348"><ele>350.0</ele><time>2026-04-11T08:30:51.869Z</time></trkpt><trkpt lat="45.9558296" lon="10.2824091"><ele>350.0</ele><time>2026-04-11T08:30:52.87Z</time></trkpt><trkpt lat="45.9558705" lon="10.2825006"><ele>350.0</ele><time>2026-04-11T08:30:53.87Z</time></trkpt><trkpt lat="45.9559227" lon="10.2825936"><ele>353.4</ele><time>2026-04-11T08:30:54.87Z</time></trkpt><trkpt lat="45.9559804" lon="10.2826739"><ele>356.8</ele><time>2026-04-11T08:30:55.869Z</time></trkpt><trkpt lat="45.9560745" lon="10.2827932"><ele>360.20000000000005</ele><time>2026-04-11T08:30:57.869Z</time></trkpt><trkpt lat="45.9561616" lon="10.282935"><ele>363.6</ele><time>2026-04-11T08:30:59.869Z</time></trkpt><trkpt lat="45.9562278" lon="10.2829995"><ele>367.0</ele><time>2026-04-11T08:31:00.87Z</time></trkpt><trkpt lat="45.956279" lon="10.2830843"><ele>357.20000000000005</ele><time>2026-04-11T08:31:01.871Z</time></trkpt><trkpt lat="45.9563315" lon="10.2831442"><ele>347.40000000000003</ele><time>2026-04-11T08:31:02.87Z</time></trkpt><trkpt lat="45.9564005" lon="10.2832138"><ele>337.6</ele><time>2026-04-11T08:31:03.87Z</time></trkpt><trkpt lat="45.9565267" lon="10.283216"><ele>327.8</ele><time>2026-04-11T08:31:04.871Z</time></trkpt><trkpt lat="45.9566138" lon="10.2832421"><ele>318.0</ele><time>2026-04-11T08:31:05.869Z</time></trkpt><trkpt lat="45.9566617" lon="10.2833636"><ele>327.6</ele><time>2026-04-11T08:31:06.87Z</time></trkpt><trkpt lat="45.9567363" lon="10.283335"><ele>337.20000000000005</ele><time>2026-04-11T08:31:07.871Z</time></trkpt><trkpt lat="45.9568264" lon="10.2831974"><ele>346.8</ele><time>2026-04-11T08:31:08.87Z</time></trkpt><trkpt lat="45.9568971" lon="10.2832366"><ele>356.40000000000003</ele><time>2026-04-11T08:31:09.87Z</time></trkpt><trkpt lat="45.9569872" lon="10.2832884"><ele>366.0</ele><time>2026-04-11T08:31:10.871Z</time></trkpt><trkpt lat="45.9570869" lon="10.2834231"><ele>366.0</ele><time>2026-04-11T08:31:12.869Z</time></trkpt><trkpt lat="45.9572" lon="10.2835023"><ele>366.0</ele><time>2026-04-11T08:31:13.871Z</time></trkpt><trkpt lat="45.957294" lon="10.2835759"><ele>366.0</ele><time>2026-04-11T08:31:14.87Z</time></trkpt><trkpt lat="45.9573945" lon="10.2836407"><ele>366.0</ele><time>2026-04-11T08:31:15.87Z</time></trkpt><trkpt lat="45.9575165" lon="10.2837237"><ele>371.20000000000005</ele><time>2026-04-11T08:31:16.871Z</time></trkpt><trkpt lat="45.9575687" lon="10.2838114"><ele>376.40000000000003</ele><time>2026-04-11T08:31:17.869Z</time></trkpt><trkpt lat="45.9577003" lon="10.2839318"><ele>381.6</ele><time>2026-04-11T08:31:19.87Z</time></trkpt><trkpt lat="45.9577707" lon="10.2839948"><ele>386.8</ele><time>2026-04-11T08:31:20.871Z</time></trkpt><trkpt lat="45.9578646" lon="10.284069"><ele>392.0</ele><time>2026-04-11T08:31:21.87Z</time></trkpt><trkpt lat="45.9579237" lon="10.2841298"><ele>392.0</ele><time>2026-04-11T08:31:22.871Z</time></trkpt><trkpt lat="45.9580256" lon="10.2841699"><ele>392.0</ele><time>2026-04-11T08:31:23.869Z</time></trkpt><trkpt lat="45.958135" lon="10.2842083"><ele>392.0</ele><time>2026-04-11T08:31:24.87Z</time></trkpt><trkpt lat="45.9582056" lon="10.2843226"><ele>392.0</ele><time>2026-04-11T08:31:25.87Z</time></trkpt><trkpt lat="45.9582625" lon="10.2844604"><ele>392.0</ele><time>2026-04-11T08:31:26.87Z</time></trkpt><trkpt lat="45.9583288" lon="10.2846095"><ele>402.0</ele><time>2026-04-11T08:31:27.871Z</time></trkpt><trkpt lat="45.9583778" lon="10.2847361"><ele>412.0</ele><time>2026-04-11T08:31:28.871Z</time></trkpt><trkpt lat="45.9584175" lon="10.2848497"><ele>422.00000000000006</ele><time>2026-04-11T08:31:29.87Z</time></trkpt><trkpt lat="45.9584748" lon="10.2849723"><ele>432.0</ele><time>2026-04-11T08:31:30.871Z</time></trkpt><trkpt lat="45.9585351" lon="10.28509"><ele>442.0</ele><time>2026-04-11T08:31:31.87Z</time></trkpt><trkpt lat="45.9585745" lon="10.2851845"><ele>442.0</ele><time>2026-04-11T08:31:32.87Z</time></trkpt><trkpt lat="45.9586022" lon="10.2852979"><ele>442.00000000000006</ele><time>2026-04-11T08:31:33.87Z</time></trkpt><trkpt lat="45.9586296" lon="10.2854064"><ele>442.00000000000006</ele><time>2026-04-11T08:31:34.869Z</time></trkpt><trkpt lat="45.958707" lon="10.2855165"><ele>442.0</ele><time>2026-04-11T08:31:35.871Z</time></trkpt><trkpt lat="45.9587689" lon="10.285661"><ele>442.0</ele><time>2026-04-11T08:31:36.869Z</time></trkpt><trkpt lat="45.958838" lon="10.2857874"><ele>434.8</ele><time>2026-04-11T08:31:37.869Z</time></trkpt><trkpt lat="45.9588726" lon="10.2859158"><ele>427.6</ele><time>2026-04-11T08:31:38.87Z</time></trkpt><trkpt lat="45.958925" lon="10.2860491"><ele>420.40000000000003</ele><time>2026-04-11T08:31:39.869Z</time></trkpt><trkpt lat="45.9589492" lon="10.2862364"><ele>413.20000000000005</ele><time>2026-04-11T08:31:40.871Z</time></trkpt><trkpt lat="45.9589631" lon="10.2863979"><ele>406.0</ele><time>2026-04-11T08:31:41.869Z</time></trkpt><trkpt lat="45.958986" lon="10.2865151"><ele>402.0</ele><time>2026-04-11T08:31:42.871Z</time></trkpt><trkpt lat="45.9590101" lon="10.286645"><ele>398.0</ele><time>2026-04-11T08:31:43.87Z</time></trkpt><trkpt lat="45.9590674" lon="10.2867694"><ele>394.0</ele><time>2026-04-11T08:31:44.869Z</time></trkpt><trkpt lat="45.9591001" lon="10.2869088"><ele>390.0</ele><time>2026-04-11T08:31:45.871Z</time></trkpt><trkpt lat="45.9591229" lon="10.2870655"><ele>386.0</ele><time>2026-04-11T08:31:46.869Z</time></trkpt><trkpt lat="45.9591659" lon="10.2872021"><ele>384.8</ele><time>2026-04-11T08:31:47.871Z</time></trkpt><trkpt lat="45.9591931" lon="10.2873335"><ele>383.6</ele><time>2026-04-11T08:31:48.87Z</time></trkpt><trkpt lat="45.9592778" lon="10.2874428"><ele>382.4</ele><time>2026-04-11T08:31:49.869Z</time></trkpt><trkpt lat="45.9593112" lon="10.2875751"><ele>381.2</ele><time>2026-04-11T08:31:50.87Z</time></trkpt><trkpt lat="45.9593773" lon="10.2876982"><ele>380.0</ele><time>2026-04-11T08:31:51.869Z</time></trkpt><trkpt lat="45.9593884" lon="10.2878611"><ele>381.0</ele><time>2026-04-11T08:31:53.87Z</time></trkpt><trkpt lat="45.9593666" lon="10.28803"><ele>382.0</ele><time>2026-04-11T08:31:55.87Z</time></trkpt><trkpt lat="45.9593338" lon="10.2881178"><ele>383.0</ele><time>2026-04-11T08:31:56.87Z</time></trkpt><trkpt lat="45.9592528" lon="10.2882392"><ele>384.0</ele><time>2026-04-11T08:31:58.869Z</time></trkpt><trkpt lat="45.9591946" lon="10.2883296"><ele>385.0</ele><time>2026-04-11T08:32:00.871Z</time></trkpt><trkpt lat="45.9591753" lon="10.2884866"><ele>385.0</ele><time>2026-04-11T08:32:02.87Z</time></trkpt><trkpt lat="45.9591441" lon="10.2886688"><ele>385.0</ele><time>2026-04-11T08:32:04.87Z</time></trkpt><trkpt lat="45.9591648" lon="10.288818"><ele>385.0</ele><time>2026-04-11T08:32:05.87Z</time></trkpt><trkpt lat="45.9591665" lon="10.2890279"><ele>385.0</ele><time>2026-04-11T08:32:07.87Z</time></trkpt><trkpt lat="45.9591737" lon="10.289132"><ele>384.6666666666667</ele><time>2026-04-11T08:32:08.87Z</time></trkpt><trkpt lat="45.9591932" lon="10.289241"><ele>384.33333333333337</ele><time>2026-04-11T08:32:09.87Z</time></trkpt><trkpt lat="45.9592085" lon="10.2893555"><ele>384.0</ele><time>2026-04-11T08:32:10.87Z</time></trkpt><trkpt lat="45.9592555" lon="10.2894733"><ele>383.6666666666667</ele><time>2026-04-11T08:32:11.872Z</time></trkpt><trkpt lat="45.9592962" lon="10.2895788"><ele>383.33333333333337</ele><time>2026-04-11T08:32:12.871Z</time></trkpt><trkpt lat="45.959364" lon="10.2896879"><ele>383.0</ele><time>2026-04-11T08:32:13.87Z</time></trkpt><trkpt lat="45.9594148" lon="10.2897978"><ele>393.1666666666667</ele><time>2026-04-11T08:32:14.871Z</time></trkpt><trkpt lat="45.9594591" lon="10.2898681"><ele>403.33333333333337</ele><time>2026-04-11T08:32:15.87Z</time></trkpt><trkpt lat="45.9595232" lon="10.2899686"><ele>413.5</ele><time>2026-04-11T08:32:16.871Z</time></trkpt><trkpt lat="45.959522" lon="10.2900945"><ele>423.6666666666667</ele><time>2026-04-11T08:32:18.87Z</time></trkpt><trkpt lat="45.9595369" lon="10.2902743"><ele>433.8333333333333</ele><time>2026-04-11T08:32:20.871Z</time></trkpt><trkpt lat="45.9595372" lon="10.2903676"><ele>444.0</ele><time>2026-04-11T08:32:21.871Z</time></trkpt><trkpt lat="45.9595515" lon="10.2904619"><ele>442.79999999999995</ele><time>2026-04-11T08:32:22.871Z</time></trkpt><trkpt lat="45.9595768" lon="10.2906578"><ele>441.59999999999997</ele><time>2026-04-11T08:32:24.87Z</time></trkpt><trkpt lat="45.959567" lon="10.2907942"><ele>440.4</ele><time>2026-04-11T08:32:26.871Z</time></trkpt><trkpt lat="45.9596307" lon="10.2908771"><ele>439.2</ele><time>2026-04-11T08:32:28.872Z</time></trkpt><trkpt lat="45.9596898" lon="10.2909306"><ele>438.0</ele><time>2026-04-11T08:32:29.871Z</time></trkpt><trkpt lat="45.9597475" lon="10.2910259"><ele>438.0</ele><time>2026-04-11T08:32:30.872Z</time></trkpt><trkpt lat="45.9597968" lon="10.2911367"><ele>438.0</ele><time>2026-04-11T08:32:31.871Z</time></trkpt><trkpt lat="45.9598115" lon="10.2912438"><ele>438.0</ele><time>2026-04-11T08:32:32.87Z</time></trkpt><trkpt lat="45.9598857" lon="10.291361"><ele>438.0</ele><time>2026-04-11T08:32:33.871Z</time></trkpt><trkpt lat="45.9599138" lon="10.2914552"><ele>438.0</ele><time>2026-04-11T08:32:34.871Z</time></trkpt><trkpt lat="45.9599394" lon="10.2915751"><ele>438.0</ele><time>2026-04-11T08:32:36.872Z</time></trkpt><trkpt lat="45.9599607" lon="10.2916787"><ele>436.4</ele><time>2026-04-11T08:32:38.872Z</time></trkpt><trkpt lat="45.9599876" lon="10.2918275"><ele>434.79999999999995</ele><time>2026-04-11T08:32:40.872Z</time></trkpt><trkpt lat="45.9600528" lon="10.2919441"><ele>433.2</ele><time>2026-04-11T08:32:42.871Z</time></trkpt><trkpt lat="45.9600942" lon="10.2920135"><ele>431.6</ele><time>2026-04-11T08:32:43.871Z</time></trkpt><trkpt lat="45.9601324" lon="10.2921296"><ele>430.0</ele><time>2026-04-11T08:32:45.871Z</time></trkpt><trkpt lat="45.9601393" lon="10.2923609"><ele>438.00000000000006</ele><time>2026-04-11T08:32:47.87Z</time></trkpt><trkpt lat="45.9601639" lon="10.2924473"><ele>446.0</ele><time>2026-04-11T08:32:48.87Z</time></trkpt><trkpt lat="45.9601758" lon="10.2925415"><ele>454.0</ele><time>2026-04-11T08:32:49.871Z</time></trkpt><trkpt lat="45.9601995" lon="10.2926889"><ele>462.0</ele><time>2026-04-11T08:32:51.871Z</time></trkpt><trkpt lat="45.9601752" lon="10.2927773"><ele>470.00000000000006</ele><time>2026-04-11T08:32:53.871Z</time></trkpt><trkpt lat="45.9602448" lon="10.2928854"><ele>478.0</ele><time>2026-04-11T08:32:55.871Z</time></trkpt><trkpt lat="45.960255" lon="10.2929943"><ele>474.79999999999995</ele><time>2026-04-11T08:32:56.871Z</time></trkpt><trkpt lat="45.9602352" lon="10.2931259"><ele>471.59999999999997</ele><time>2026-04-11T08:32:57.871Z</time></trkpt><trkpt lat="45.9602274" lon="10.2932737"><ele>468.40000000000003</ele><time>2026-04-11T08:32:58.872Z</time></trkpt><trkpt lat="45.9602325" lon="10.2934171"><ele>465.20000000000005</ele><time>2026-04-11T08:32:59.872Z</time></trkpt><trkpt lat="45.9602303" lon="10.2935413"><ele>462.0</ele><time>2026-04-11T08:33:00.871Z</time></trkpt><trkpt lat="45.9602017" lon="10.293637"><ele>462.0</ele><time>2026-04-11T08:33:01.871Z</time></trkpt><trkpt lat="45.9602233" lon="10.293796"><ele>462.00000000000006</ele><time>2026-04-11T08:33:03.871Z</time></trkpt><trkpt lat="45.9602439" lon="10.2939486"><ele>462.00000000000006</ele><time>2026-04-11T08:33:05.871Z</time></trkpt><trkpt lat="45.9602835" lon="10.2940302"><ele>462.0</ele><time>2026-04-11T08:33:06.87Z</time></trkpt><trkpt lat="45.9603544" lon="10.2941603"><ele>462.0</ele><time>2026-04-11T08:33:08.871Z</time></trkpt><trkpt lat="45.960384" lon="10.2943249"><ele>461.8571428571429</ele><time>2026-04-11T08:33:10.87Z</time></trkpt><trkpt lat="45.9603851" lon="10.2944219"><ele>461.7142857142857</ele><time>2026-04-11T08:33:11.872Z</time></trkpt><trkpt lat="45.9603798" lon="10.2945433"><ele>461.57142857142856</ele><time>2026-04-11T08:33:12.872Z</time></trkpt><trkpt lat="45.9603866" lon="10.2946433"><ele>461.42857142857144</ele><time>2026-04-11T08:33:13.871Z</time></trkpt><trkpt lat="45.9603823" lon="10.2947553"><ele>461.28571428571433</ele><time>2026-04-11T08:33:14.871Z</time></trkpt><trkpt lat="45.9603854" lon="10.294853"><ele>461.14285714285717</ele><time>2026-04-11T08:33:15.872Z</time></trkpt><trkpt lat="45.9604028" lon="10.2949421"><ele>461.0</ele><time>2026-04-11T08:33:16.871Z</time></trkpt><trkpt lat="45.9604289" lon="10.2950951"><ele>461.0</ele><time>2026-04-11T08:33:18.871Z</time></trkpt><trkpt lat="45.9604516" lon="10.2951889"><ele>461.0</ele><time>2026-04-11T08:33:19.871Z</time></trkpt><trkpt lat="45.9604845" lon="10.295343"><ele>461.0</ele><time>2026-04-11T08:33:21.871Z</time></trkpt><trkpt lat="45.9605614" lon="10.2954754"><ele>461.0</ele><time>2026-04-11T08:33:23.871Z</time></trkpt><trkpt lat="45.9606099" lon="10.2956429"><ele>461.0</ele><time>2026-04-11T08:33:25.87Z</time></trkpt><trkpt lat="45.960644" lon="10.2957708"><ele>461.0</ele><time>2026-04-11T08:33:27.871Z</time></trkpt><trkpt lat="45.9606507" lon="10.2958623"><ele>461.0</ele><time>2026-04-11T08:33:28.87Z</time></trkpt><trkpt lat="45.9606633" lon="10.2959738"><ele>461.0</ele><time>2026-04-11T08:33:29.87Z</time></trkpt><trkpt lat="45.9606612" lon="10.2961578"><ele>461.0</ele><time>2026-04-11T08:33:31.871Z</time></trkpt><trkpt lat="45.9606698" lon="10.2963088"><ele>461.0</ele><time>2026-04-11T08:33:33.872Z</time></trkpt><trkpt lat="45.9606819" lon="10.2964191"><ele>457.8</ele><time>2026-04-11T08:33:34.871Z</time></trkpt><trkpt lat="45.9607202" lon="10.2965112"><ele>454.6</ele><time>2026-04-11T08:33:35.871Z</time></trkpt><trkpt lat="45.9608151" lon="10.2966798"><ele>451.4</ele><time>2026-04-11T08:33:37.871Z</time></trkpt><trkpt lat="45.9608283" lon="10.296798"><ele>448.2</ele><time>2026-04-11T08:33:39.872Z</time></trkpt><trkpt lat="45.9608424" lon="10.2969432"><ele>445.0</ele><time>2026-04-11T08:33:41.871Z</time></trkpt><trkpt lat="45.9608446" lon="10.2971022"><ele>452.75</ele><time>2026-04-11T08:33:43.871Z</time></trkpt><trkpt lat="45.9608949" lon="10.2972586"><ele>460.5</ele><time>2026-04-11T08:33:45.872Z</time></trkpt><trkpt lat="45.9609615" lon="10.2974042"><ele>468.25</ele><time>2026-04-11T08:33:47.871Z</time></trkpt><trkpt lat="45.9610347" lon="10.2975428"><ele>476.0</ele><time>2026-04-11T08:33:49.871Z</time></trkpt><trkpt lat="45.9610816" lon="10.297681"><ele>475.99999999999994</ele><time>2026-04-11T08:33:51.872Z</time></trkpt><trkpt lat="45.9611024" lon="10.2978482"><ele>476.0</ele><time>2026-04-11T08:33:53.872Z</time></trkpt><trkpt lat="45.9611206" lon="10.2979411"><ele>476.0</ele><time>2026-04-11T08:33:54.871Z</time></trkpt><trkpt lat="45.9611458" lon="10.2980259"><ele>476.0</ele><time>2026-04-11T08:33:55.871Z</time></trkpt><trkpt lat="45.9611808" lon="10.2981139"><ele>475.99999999999994</ele><time>2026-04-11T08:33:56.871Z</time></trkpt><trkpt lat="45.9612424" lon="10.2982621"><ele>476.0</ele><time>2026-04-11T08:33:58.872Z</time></trkpt><trkpt lat="45.9613197" lon="10.2983804"><ele>473.0</ele><time>2026-04-11T08:34:00.871Z</time></trkpt><trkpt lat="45.961396" lon="10.2984862"><ele>470.0</ele><time>2026-04-11T08:34:02.871Z</time></trkpt><trkpt lat="45.9614709" lon="10.2985856"><ele>467.0</ele><time>2026-04-11T08:34:04.871Z</time></trkpt><trkpt lat="45.961505" lon="10.2986791"><ele>464.0</ele><time>2026-04-11T08:34:06.871Z</time></trkpt><trkpt lat="45.9614989" lon="10.298838"><ele>461.0</ele><time>2026-04-11T08:34:08.872Z</time></trkpt><trkpt lat="45.9614943" lon="10.2989307"><ele>457.4</ele><time>2026-04-11T08:34:09.871Z</time></trkpt><trkpt lat="45.961505" lon="10.2990284"><ele>453.8</ele><time>2026-04-11T08:34:10.872Z</time></trkpt><trkpt lat="45.9615212" lon="10.2991167"><ele>450.19999999999993</ele><time>2026-04-11T08:34:11.872Z</time></trkpt><trkpt lat="45.9615542" lon="10.2992662"><ele>446.59999999999997</ele><time>2026-04-11T08:34:13.871Z</time></trkpt><trkpt lat="45.961616" lon="10.2993897"><ele>443.0</ele><time>2026-04-11T08:34:15.871Z</time></trkpt><trkpt lat="45.9616811" lon="10.2995199"><ele>445.0</ele><time>2026-04-11T08:34:17.87Z</time></trkpt><trkpt lat="45.9617561" lon="10.2995953"><ele>446.99999999999994</ele><time>2026-04-11T08:34:19.87Z</time></trkpt><trkpt lat="45.9618414" lon="10.2996335"><ele>448.99999999999994</ele><time>2026-04-11T08:34:21.871Z</time></trkpt><trkpt lat="45.9619609" lon="10.2996622"><ele>451.0</ele><time>2026-04-11T08:34:23.871Z</time></trkpt><trkpt lat="45.9620493" lon="10.2996559"><ele>453.0</ele><time>2026-04-11T08:34:25.871Z</time></trkpt><trkpt lat="45.9621318" lon="10.2996098"><ele>453.0</ele><time>2026-04-11T08:34:27.871Z</time></trkpt><trkpt lat="45.9622254" lon="10.2995237"><ele>452.99999999999994</ele><time>2026-04-11T08:34:29.871Z</time></trkpt><trkpt lat="45.9623369" lon="10.2994363"><ele>452.99999999999994</ele><time>2026-04-11T08:34:31.87Z</time></trkpt><trkpt lat="45.9624281" lon="10.2993485"><ele>453.0</ele><time>2026-04-11T08:34:33.871Z</time></trkpt><trkpt lat="45.9625067" lon="10.2992752"><ele>453.0</ele><time>2026-04-11T08:34:35.872Z</time></trkpt><trkpt lat="45.9625687" lon="10.2992412"><ele>455.4</ele><time>2026-04-11T08:34:36.871Z</time></trkpt><trkpt lat="45.9626369" lon="10.2992045"><ele>457.79999999999995</ele><time>2026-04-11T08:34:37.871Z</time></trkpt><trkpt lat="45.9627392" lon="10.2991554"><ele>460.2</ele><time>2026-04-11T08:34:39.871Z</time></trkpt><trkpt lat="45.9628363" lon="10.2992124"><ele>462.6</ele><time>2026-04-11T08:34:41.872Z</time></trkpt><trkpt lat="45.9629373" lon="10.2992678"><ele>465.0</ele><time>2026-04-11T08:34:43.871Z</time></trkpt><trkpt lat="45.9630573" lon="10.2993209"><ele>465.0</ele><time>2026-04-11T08:34:45.872Z</time></trkpt><trkpt lat="45.9631673" lon="10.2993646"><ele>465.0</ele><time>2026-04-11T08:34:47.871Z</time></trkpt><trkpt lat="45.9632404" lon="10.2993817"><ele>465.0</ele><time>2026-04-11T08:34:48.872Z</time></trkpt><trkpt lat="45.9633043" lon="10.2994144"><ele>465.0</ele><time>2026-04-11T08:34:49.871Z</time></trkpt><trkpt lat="45.963387" lon="10.299514"><ele>465.0</ele><time>2026-04-11T08:34:51.872Z</time></trkpt><trkpt lat="45.9634393" lon="10.2996433"><ele>462.8</ele><time>2026-04-11T08:34:53.872Z</time></trkpt><trkpt lat="45.9634893" lon="10.2997725"><ele>460.6</ele><time>2026-04-11T08:34:55.87Z</time></trkpt><trkpt lat="45.9635551" lon="10.2998819"><ele>458.4</ele><time>2026-04-11T08:34:57.871Z</time></trkpt><trkpt lat="45.963658" lon="10.3000294"><ele>456.2</ele><time>2026-04-11T08:34:59.871Z</time></trkpt><trkpt lat="45.9637214" lon="10.3001016"><ele>454.0</ele><time>2026-04-11T08:35:00.871Z</time></trkpt><trkpt lat="45.9637886" lon="10.3001482"><ele>454.0</ele><time>2026-04-11T08:35:02.871Z</time></trkpt><trkpt lat="45.963868" lon="10.3001541"><ele>454.0</ele><time>2026-04-11T08:35:05.872Z</time></trkpt><trkpt lat="45.9639928" lon="10.3001511"><ele>454.0</ele><time>2026-04-11T08:35:09.871Z</time></trkpt><trkpt lat="45.9640808" lon="10.3001738"><ele>454.0</ele><time>2026-04-11T08:35:12.87Z</time></trkpt><trkpt lat="45.9642038" lon="10.3001825"><ele>454.0</ele><time>2026-04-11T08:35:15.872Z</time></trkpt><trkpt lat="45.9642742" lon="10.3001908"><ele>452.83333333333337</ele><time>2026-04-11T08:35:17.872Z</time></trkpt><trkpt lat="45.9643464" lon="10.300255"><ele>451.6666666666667</ele><time>2026-04-11T08:35:21.872Z</time></trkpt><trkpt lat="45.9643883" lon="10.3003587"><ele>450.5</ele><time>2026-04-11T08:35:23.87Z</time></trkpt><trkpt lat="45.9644212" lon="10.3004661"><ele>449.33333333333337</ele><time>2026-04-11T08:35:25.821Z</time></trkpt><trkpt lat="45.964451" lon="10.3005495"><ele>448.1666666666667</ele><time>2026-04-11T08:35:26.87Z</time></trkpt><trkpt lat="45.9644974" lon="10.3006579"><ele>447.0</ele><time>2026-04-11T08:35:28.871Z</time></trkpt><trkpt lat="45.9645726" lon="10.3007409"><ele>447.0</ele><time>2026-04-11T08:35:30.871Z</time></trkpt><trkpt lat="45.9646455" lon="10.3007507"><ele>447.0</ele><time>2026-04-11T08:35:32.871Z</time></trkpt><trkpt lat="45.9647108" lon="10.3007549"><ele>447.0</ele><time>2026-04-11T08:35:34.871Z</time></trkpt><trkpt lat="45.9647956" lon="10.3007854"><ele>447.0</ele><time>2026-04-11T08:35:36.871Z</time></trkpt><trkpt lat="45.9649018" lon="10.300851"><ele>447.0</ele><time>2026-04-11T08:35:38.87Z</time></trkpt><trkpt lat="45.9649731" lon="10.3009182"><ele>447.0</ele><time>2026-04-11T08:35:40.871Z</time></trkpt><trkpt lat="45.9650266" lon="10.3010362"><ele>448.5</ele><time>2026-04-11T08:35:43.871Z</time></trkpt><trkpt lat="45.965056" lon="10.3011348"><ele>450.0</ele><time>2026-04-11T08:35:46.871Z</time></trkpt><trkpt lat="45.9651454" lon="10.3011683"><ele>451.5</ele><time>2026-04-11T08:35:49.872Z</time></trkpt><trkpt lat="45.9652317" lon="10.3011571"><ele>453.0</ele><time>2026-04-11T08:35:52.871Z</time></trkpt><trkpt lat="45.9653013" lon="10.3012202"><ele>454.5</ele><time>2026-04-11T08:35:55.871Z</time></trkpt><trkpt lat="45.9653479" lon="10.3013311"><ele>456.0</ele><time>2026-04-11T08:35:58.872Z</time></trkpt><trkpt lat="45.9654065" lon="10.3014444"><ele>456.0</ele><time>2026-04-11T08:36:00.871Z</time></trkpt><trkpt lat="45.9654531" lon="10.301562"><ele>456.0</ele><time>2026-04-11T08:36:01.872Z</time></trkpt><trkpt lat="45.9654771" lon="10.301705"><ele>456.0</ele><time>2026-04-11T08:36:02.87Z</time></trkpt><trkpt lat="45.9654953" lon="10.301831"><ele>456.0</ele><time>2026-04-11T08:36:03.871Z</time></trkpt><trkpt lat="45.9655055" lon="10.3019291"><ele>456.0</ele><time>2026-04-11T08:36:04.871Z</time></trkpt><trkpt lat="45.9655373" lon="10.3020652"><ele>456.0</ele><time>2026-04-11T08:36:06.871Z</time></trkpt><trkpt lat="45.9655973" lon="10.3021798"><ele>456.0</ele><time>2026-04-11T08:36:08.872Z</time></trkpt><trkpt lat="45.9656673" lon="10.3022587"><ele>456.0</ele><time>2026-04-11T08:36:10.871Z</time></trkpt><trkpt lat="45.9657323" lon="10.3023209"><ele>456.0</ele><time>2026-04-11T08:36:13.872Z</time></trkpt><trkpt lat="45.9657985" lon="10.302399"><ele>456.0</ele><time>2026-04-11T08:36:15.872Z</time></trkpt><trkpt lat="45.9658632" lon="10.3024557"><ele>456.0</ele><time>2026-04-11T08:36:16.87Z</time></trkpt><trkpt lat="45.9659214" lon="10.3025022"><ele>455.8</ele><time>2026-04-11T08:36:17.871Z</time></trkpt><trkpt lat="45.9660279" lon="10.3025696"><ele>455.6</ele><time>2026-04-11T08:36:19.871Z</time></trkpt><trkpt lat="45.9661235" lon="10.3026389"><ele>455.4</ele><time>2026-04-11T08:36:21.872Z</time></trkpt><trkpt lat="45.9661914" lon="10.3027124"><ele>455.2</ele><time>2026-04-11T08:36:23.871Z</time></trkpt><trkpt lat="45.9662902" lon="10.302794"><ele>455.0</ele><time>2026-04-11T08:36:25.871Z</time></trkpt><trkpt lat="45.9663542" lon="10.3028412"><ele>454.99999999999994</ele><time>2026-04-11T08:36:26.87Z</time></trkpt><trkpt lat="45.9664136" lon="10.3028903"><ele>455.0</ele><time>2026-04-11T08:36:27.87Z</time></trkpt><trkpt lat="45.9664737" lon="10.3029372"><ele>455.0</ele><time>2026-04-11T08:36:28.871Z</time></trkpt><trkpt lat="45.9665297" lon="10.3029836"><ele>455.0</ele><time>2026-04-11T08:36:29.872Z</time></trkpt><trkpt lat="45.9666414" lon="10.3030454"><ele>454.99999999999994</ele><time>2026-04-11T08:36:31.87Z</time></trkpt><trkpt lat="45.9667307" lon="10.3030979"><ele>455.0</ele><time>2026-04-11T08:36:33.87Z</time></trkpt><trkpt lat="45.9668038" lon="10.3031433"><ele>453.16666666666663</ele><time>2026-04-11T08:36:35.871Z</time></trkpt><trkpt lat="45.9668674" lon="10.3032286"><ele>451.3333333333333</ele><time>2026-04-11T08:36:39.87Z</time></trkpt><trkpt lat="45.9669374" lon="10.3032776"><ele>449.5</ele><time>2026-04-11T08:36:41.872Z</time></trkpt><trkpt lat="45.9670118" lon="10.3033385"><ele>447.66666666666663</ele><time>2026-04-11T08:36:43.87Z</time></trkpt><trkpt lat="45.9671012" lon="10.3034149"><ele>445.8333333333333</ele><time>2026-04-11T08:36:45.871Z</time></trkpt><trkpt lat="45.9671622" lon="10.3034567"><ele>444.0</ele><time>2026-04-11T08:36:46.871Z</time></trkpt><trkpt lat="45.9672229" lon="10.3034965"><ele>444.0</ele><time>2026-04-11T08:36:47.871Z</time></trkpt><trkpt lat="45.9673218" lon="10.3035537"><ele>444.0</ele><time>2026-04-11T08:36:49.872Z</time></trkpt><trkpt lat="45.9674341" lon="10.303575"><ele>444.0</ele><time>2026-04-11T08:36:51.87Z</time></trkpt><trkpt lat="45.9675221" lon="10.3036163"><ele>444.0</ele><time>2026-04-11T08:36:53.872Z</time></trkpt><trkpt lat="45.9675939" lon="10.3036199"><ele>444.0</ele><time>2026-04-11T08:36:56.872Z</time></trkpt><trkpt lat="45.9676632" lon="10.3036065"><ele>444.4285714285714</ele><time>2026-04-11T08:37:05.872Z</time></trkpt><trkpt lat="45.9677337" lon="10.3036082"><ele>444.8571428571429</ele><time>2026-04-11T08:37:08.871Z</time></trkpt><trkpt lat="45.9677974" lon="10.3035801"><ele>445.2857142857143</ele><time>2026-04-11T08:37:13.875Z</time></trkpt><trkpt lat="45.9678625" lon="10.3035796"><ele>445.71428571428567</ele><time>2026-04-11T08:37:15.871Z</time></trkpt><trkpt lat="45.9679277" lon="10.3035719"><ele>446.1428571428571</ele><time>2026-04-11T08:37:17.8Z</time></trkpt><trkpt lat="45.968021" lon="10.3035674"><ele>446.57142857142856</ele><time>2026-04-11T08:37:19.871Z</time></trkpt><trkpt lat="45.968095" lon="10.303562"><ele>447.0</ele><time>2026-04-11T08:37:21.871Z</time></trkpt><trkpt lat="45.9681586" lon="10.3035719"><ele>447.0</ele><time>2026-04-11T08:37:23.871Z</time></trkpt><trkpt lat="45.9682255" lon="10.3035755"><ele>447.0</ele><time>2026-04-11T08:37:25.87Z</time></trkpt><trkpt lat="45.9683281" lon="10.3035626"><ele>447.0</ele><time>2026-04-11T08:37:28.871Z</time></trkpt><trkpt lat="45.9684105" lon="10.303546"><ele>447.0</ele><time>2026-04-11T08:37:30.872Z</time></trkpt><trkpt lat="45.9684771" lon="10.3035328"><ele>447.0</ele><time>2026-04-11T08:37:32.87Z</time></trkpt><trkpt lat="45.9685461" lon="10.303524"><ele>447.0</ele><time>2026-04-11T08:37:34.871Z</time></trkpt><trkpt lat="45.9686155" lon="10.3035003"><ele>445.40000000000003</ele><time>2026-04-11T08:37:36.871Z</time></trkpt><trkpt lat="45.9687409" lon="10.3034451"><ele>443.80000000000007</ele><time>2026-04-11T08:37:38.871Z</time></trkpt><trkpt lat="45.968807" lon="10.3034201"><ele>442.2</ele><time>2026-04-11T08:37:39.87Z</time></trkpt><trkpt lat="45.9688676" lon="10.3033939"><ele>440.6</ele><time>2026-04-11T08:37:40.871Z</time></trkpt><trkpt lat="45.968976" lon="10.303339"><ele>439.0</ele><time>2026-04-11T08:37:42.871Z</time></trkpt><trkpt lat="45.9690587" lon="10.3033164"><ele>439.0</ele><time>2026-04-11T08:37:44.871Z</time></trkpt><trkpt lat="45.9691505" lon="10.3032668"><ele>439.0</ele><time>2026-04-11T08:37:46.871Z</time></trkpt><trkpt lat="45.9692257" lon="10.3032068"><ele>439.0</ele><time>2026-04-11T08:37:48.871Z</time></trkpt><trkpt lat="45.9693013" lon="10.3030969"><ele>439.0</ele><time>2026-04-11T08:37:50.871Z</time></trkpt><trkpt lat="45.9693732" lon="10.303018"><ele>439.0</ele><time>2026-04-11T08:37:52.871Z</time></trkpt><trkpt lat="45.9694733" lon="10.3029574"><ele>442.1666666666667</ele><time>2026-04-11T08:37:54.871Z</time></trkpt><trkpt lat="45.9695766" lon="10.3029348"><ele>445.33333333333337</ele><time>2026-04-11T08:37:56.871Z</time></trkpt><trkpt lat="45.9696362" lon="10.30297"><ele>448.5</ele><time>2026-04-11T08:38:00.871Z</time></trkpt><trkpt lat="45.9696249" lon="10.303079"><ele>451.66666666666663</ele><time>2026-04-11T08:38:03.87Z</time></trkpt><trkpt lat="45.96962" lon="10.3031755"><ele>454.8333333333333</ele><time>2026-04-11T08:38:06.87Z</time></trkpt><trkpt lat="45.9696363" lon="10.3032982"><ele>458.0</ele><time>2026-04-11T08:38:09.819Z</time></trkpt><trkpt lat="45.9696695" lon="10.3034"><ele>457.99999999999994</ele><time>2026-04-11T08:38:11.872Z</time></trkpt><trkpt lat="45.9696956" lon="10.3035093"><ele>458.0</ele><time>2026-04-11T08:38:14.87Z</time></trkpt><trkpt lat="45.9697082" lon="10.3036289"><ele>458.0</ele><time>2026-04-11T08:38:17.871Z</time></trkpt><trkpt lat="45.9697198" lon="10.3037405"><ele>458.0</ele><time>2026-04-11T08:38:20.871Z</time></trkpt><trkpt lat="45.9697355" lon="10.3038532"><ele>457.99999999999994</ele><time>2026-04-11T08:38:23.871Z</time></trkpt><trkpt lat="45.969744" lon="10.3039914"><ele>458.0</ele><time>2026-04-11T08:38:26.87Z</time></trkpt><trkpt lat="45.9697559" lon="10.3040844"><ele>454.16666666666663</ele><time>2026-04-11T08:38:28.871Z</time></trkpt><trkpt lat="45.9697673" lon="10.3042133"><ele>450.3333333333333</ele><time>2026-04-11T08:38:31.871Z</time></trkpt><trkpt lat="45.9697808" lon="10.3043137"><ele>446.5</ele><time>2026-04-11T08:38:33.861Z</time></trkpt><trkpt lat="45.9698275" lon="10.3044388"><ele>442.66666666666663</ele><time>2026-04-11T08:38:35.871Z</time></trkpt><trkpt lat="45.9698761" lon="10.3045312"><ele>438.8333333333333</ele><time>2026-04-11T08:38:37.87Z</time></trkpt><trkpt lat="45.9699202" lon="10.3046233"><ele>435.0</ele><time>2026-04-11T08:38:39.872Z</time></trkpt><trkpt lat="45.9699616" lon="10.3047044"><ele>436.0</ele><time>2026-04-11T08:38:41.871Z</time></trkpt><trkpt lat="45.9699938" lon="10.3047961"><ele>437.0</ele><time>2026-04-11T08:38:43.87Z</time></trkpt><trkpt lat="45.9700251" lon="10.3049149"><ele>438.0</ele><time>2026-04-11T08:38:46.87Z</time></trkpt><trkpt lat="45.970071" lon="10.3049902"><ele>439.0</ele><time>2026-04-11T08:38:49.871Z</time></trkpt><trkpt lat="45.9701446" lon="10.3050211"><ele>440.0</ele><time>2026-04-11T08:38:52.872Z</time></trkpt><trkpt lat="45.9702148" lon="10.3050178"><ele>441.0</ele><time>2026-04-11T08:38:55.852Z</time></trkpt><trkpt lat="45.9702956" lon="10.3050204"><ele>441.0</ele><time>2026-04-11T08:39:02.872Z</time></trkpt><trkpt lat="45.9703779" lon="10.3050371"><ele>441.0</ele><time>2026-04-11T08:39:05.871Z</time></trkpt><trkpt lat="45.9704463" lon="10.305072"><ele>441.0</ele><time>2026-04-11T08:39:08.872Z</time></trkpt><trkpt lat="45.9705069" lon="10.3051292"><ele>441.0</ele><time>2026-04-11T08:39:11.872Z</time></trkpt><trkpt lat="45.9705692" lon="10.3052008"><ele>441.0</ele><time>2026-04-11T08:39:13.872Z</time></trkpt><trkpt lat="45.9706224" lon="10.3052612"><ele>441.0</ele><time>2026-04-11T08:39:15.871Z</time></trkpt><trkpt lat="45.9706856" lon="10.305304"><ele>441.0</ele><time>2026-04-11T08:39:17.872Z</time></trkpt><trkpt lat="45.970758" lon="10.3053217"><ele>441.0</ele><time>2026-04-11T08:39:19.873Z</time></trkpt><trkpt lat="45.9708236" lon="10.305327"><ele>441.0</ele><time>2026-04-11T08:39:20.777Z</time></trkpt><trkpt lat="45.9708881" lon="10.3053562"><ele>441.0</ele><time>2026-04-11T08:39:21.873Z</time></trkpt><trkpt lat="45.970952" lon="10.3053975"><ele>441.0</ele><time>2026-04-11T08:39:23.835Z</time></trkpt><trkpt lat="45.9710336" lon="10.3054784"><ele>441.0</ele><time>2026-04-11T08:39:25.872Z</time></trkpt><trkpt lat="45.9711257" lon="10.3055323"><ele>441.0</ele><time>2026-04-11T08:39:27.872Z</time></trkpt><trkpt lat="45.9712031" lon="10.3055622"><ele>436.6666666666667</ele><time>2026-04-11T08:39:28.872Z</time></trkpt><trkpt lat="45.9712868" lon="10.3055871"><ele>432.33333333333337</ele><time>2026-04-11T08:39:29.871Z</time></trkpt><trkpt lat="45.9713619" lon="10.3056131"><ele>428.0</ele><time>2026-04-11T08:39:30.872Z</time></trkpt><trkpt lat="45.9714494" lon="10.305605"><ele>423.6666666666667</ele><time>2026-04-11T08:39:31.872Z</time></trkpt><trkpt lat="45.9715209" lon="10.3055934"><ele>419.33333333333337</ele><time>2026-04-11T08:39:32.872Z</time></trkpt><trkpt lat="45.9716414" lon="10.305585"><ele>415.0</ele><time>2026-04-11T08:39:34.872Z</time></trkpt><trkpt lat="45.9717738" lon="10.3055736"><ele>420.6</ele><time>2026-04-11T08:39:36.873Z</time></trkpt><trkpt lat="45.9718376" lon="10.3055699"><ele>426.2</ele><time>2026-04-11T08:39:37.872Z</time></trkpt><trkpt lat="45.9719191" lon="10.3056083"><ele>431.79999999999995</ele><time>2026-04-11T08:39:39.873Z</time></trkpt><trkpt lat="45.972008" lon="10.3057212"><ele>437.4</ele><time>2026-04-11T08:39:43.872Z</time></trkpt><trkpt lat="45.9720982" lon="10.3058281"><ele>443.0</ele><time>2026-04-11T08:39:45.872Z</time></trkpt><trkpt lat="45.9720098" lon="10.3059404"><ele>443.0</ele><time>2026-04-11T08:39:48.872Z</time></trkpt><trkpt lat="45.9719858" lon="10.3060539"><ele>442.99999999999994</ele><time>2026-04-11T08:39:51.871Z</time></trkpt><trkpt lat="45.9720319" lon="10.3061384"><ele>442.99999999999994</ele><time>2026-04-11T08:39:53.872Z</time></trkpt><trkpt lat="45.9721259" lon="10.3062241"><ele>443.0</ele><time>2026-04-11T08:39:54.873Z</time></trkpt><trkpt lat="45.9722183" lon="10.3063281"><ele>443.0</ele><time>2026-04-11T08:39:55.873Z</time></trkpt><trkpt lat="45.9722956" lon="10.3064113"><ele>442.3333333333333</ele><time>2026-04-11T08:39:56.873Z</time></trkpt><trkpt lat="45.9723519" lon="10.3064856"><ele>441.66666666666663</ele><time>2026-04-11T08:39:57.873Z</time></trkpt><trkpt lat="45.9724107" lon="10.3065536"><ele>441.0</ele><time>2026-04-11T08:39:59.872Z</time></trkpt><trkpt lat="45.9724581" lon="10.3066136"><ele>440.33333333333337</ele><time>2026-04-11T08:40:01.871Z</time></trkpt><trkpt lat="45.972556" lon="10.3067317"><ele>439.6666666666667</ele><time>2026-04-11T08:40:03.873Z</time></trkpt><trkpt lat="45.972627" lon="10.306794"><ele>439.0</ele><time>2026-04-11T08:40:04.872Z</time></trkpt><trkpt lat="45.9727015" lon="10.3068528"><ele>439.00000000000006</ele><time>2026-04-11T08:40:05.872Z</time></trkpt><trkpt lat="45.9727615" lon="10.3069315"><ele>439.0</ele><time>2026-04-11T08:40:06.873Z</time></trkpt><trkpt lat="45.972823" lon="10.3070048"><ele>439.0</ele><time>2026-04-11T08:40:07.873Z</time></trkpt><trkpt lat="45.9728758" lon="10.3070642"><ele>439.0</ele><time>2026-04-11T08:40:08.872Z</time></trkpt><trkpt lat="45.9729533" lon="10.3072027"><ele>439.00000000000006</ele><time>2026-04-11T08:40:10.872Z</time></trkpt><trkpt lat="45.9729917" lon="10.307291"><ele>439.0</ele><time>2026-04-11T08:40:11.873Z</time></trkpt><trkpt lat="45.973018" lon="10.3073923"><ele>434.1666666666667</ele><time>2026-04-11T08:40:12.873Z</time></trkpt><trkpt lat="45.973041" lon="10.3075058"><ele>429.33333333333337</ele><time>2026-04-11T08:40:13.871Z</time></trkpt><trkpt lat="45.9730543" lon="10.3076126"><ele>424.5</ele><time>2026-04-11T08:40:14.873Z</time></trkpt><trkpt lat="45.9730859" lon="10.307716"><ele>419.66666666666663</ele><time>2026-04-11T08:40:15.872Z</time></trkpt><trkpt lat="45.9731217" lon="10.307854"><ele>414.8333333333333</ele><time>2026-04-11T08:40:17.872Z</time></trkpt><trkpt lat="45.9731614" lon="10.3079254"><ele>410.0</ele><time>2026-04-11T08:40:19.872Z</time></trkpt><trkpt lat="45.9732355" lon="10.3080125"><ele>409.6</ele><time>2026-04-11T08:40:21.873Z</time></trkpt><trkpt lat="45.9733251" lon="10.3080984"><ele>409.2</ele><time>2026-04-11T08:40:23.872Z</time></trkpt><trkpt lat="45.97342" lon="10.3081886"><ele>408.79999999999995</ele><time>2026-04-11T08:40:25.873Z</time></trkpt><trkpt lat="45.9735405" lon="10.3082644"><ele>408.4</ele><time>2026-04-11T08:40:27.871Z</time></trkpt><trkpt lat="45.9736269" lon="10.3083149"><ele>408.0</ele><time>2026-04-11T08:40:29.872Z</time></trkpt><trkpt lat="45.9737025" lon="10.3083721"><ele>408.0</ele><time>2026-04-11T08:40:31.872Z</time></trkpt><trkpt lat="45.9737861" lon="10.3084018"><ele>408.0</ele><time>2026-04-11T08:40:33.873Z</time></trkpt><trkpt lat="45.9738839" lon="10.3084129"><ele>408.0</ele><time>2026-04-11T08:40:35.872Z</time></trkpt><trkpt lat="45.9739893" lon="10.3084077"><ele>408.0</ele><time>2026-04-11T08:40:37.873Z</time></trkpt><trkpt lat="45.9740534" lon="10.3084005"><ele>408.0</ele><time>2026-04-11T08:40:39.873Z</time></trkpt><trkpt lat="45.9742016" lon="10.3085641"><ele>413.59999999999997</ele><time>2026-04-11T08:40:44.871Z</time></trkpt><trkpt lat="45.9742709" lon="10.3086579"><ele>419.2</ele><time>2026-04-11T08:40:46.873Z</time></trkpt><trkpt lat="45.9742074" lon="10.3086949"><ele>424.8</ele><time>2026-04-11T08:41:08.612Z</time></trkpt><trkpt lat="45.9743159" lon="10.3086618"><ele>430.4</ele><time>2026-04-11T08:41:14.872Z</time></trkpt><trkpt lat="45.9744016" lon="10.3087261"><ele>436.0</ele><time>2026-04-11T08:41:22.871Z</time></trkpt><trkpt lat="45.974567" lon="10.3088448"><ele>425.33333333333337</ele><time>2026-04-11T08:41:23.873Z</time></trkpt><trkpt lat="45.974732" lon="10.3089622"><ele>414.66666666666663</ele><time>2026-04-11T08:41:24.871Z</time></trkpt><trkpt lat="45.9748626" lon="10.3090598"><ele>404.0</ele><time>2026-04-11T08:41:25.872Z</time></trkpt><trkpt lat="45.9749634" lon="10.3091541"><ele>407.79999999999995</ele><time>2026-04-11T08:41:26.872Z</time></trkpt><trkpt lat="45.9750368" lon="10.3092359"><ele>411.59999999999997</ele><time>2026-04-11T08:41:27.872Z</time></trkpt><trkpt lat="45.9751287" lon="10.3093202"><ele>415.4</ele><time>2026-04-11T08:41:29.872Z</time></trkpt><trkpt lat="45.9752203" lon="10.3093638"><ele>419.2</ele><time>2026-04-11T08:41:31.872Z</time></trkpt><trkpt lat="45.9753151" lon="10.3093782"><ele>423.0</ele><time>2026-04-11T08:41:33.873Z</time></trkpt><trkpt lat="45.9754019" lon="10.3093897"><ele>423.0</ele><time>2026-04-11T08:41:35.873Z</time></trkpt><trkpt lat="45.9754725" lon="10.3094077"><ele>423.0</ele><time>2026-04-11T08:41:37.873Z</time></trkpt><trkpt lat="45.9755552" lon="10.3094102"><ele>423.0</ele><time>2026-04-11T08:41:41.871Z</time></trkpt><trkpt lat="45.9755442" lon="10.3095292"><ele>423.0</ele><time>2026-04-11T08:41:46.872Z</time></trkpt><trkpt lat="45.9755153" lon="10.3096225"><ele>423.0</ele><time>2026-04-11T08:41:48.872Z</time></trkpt><trkpt lat="45.9754944" lon="10.3097717"><ele>423.0</ele><time>2026-04-11T08:41:52.872Z</time></trkpt><trkpt lat="45.9754788" lon="10.3098673"><ele>420.8333333333333</ele><time>2026-04-11T08:41:53.872Z</time></trkpt><trkpt lat="45.9754586" lon="10.3099651"><ele>418.66666666666663</ele><time>2026-04-11T08:41:54.872Z</time></trkpt><trkpt lat="45.9754451" lon="10.3100572"><ele>416.5</ele><time>2026-04-11T08:41:55.871Z</time></trkpt><trkpt lat="45.9754406" lon="10.3101985"><ele>414.3333333333333</ele><time>2026-04-11T08:41:57.872Z</time></trkpt><trkpt lat="45.9754379" lon="10.3103195"><ele>412.16666666666663</ele><time>2026-04-11T08:41:59.871Z</time></trkpt><trkpt lat="45.9754287" lon="10.310414"><ele>410.0</ele><time>2026-04-11T08:42:01.879Z</time></trkpt><trkpt lat="45.9754474" lon="10.3105244"><ele>408.4</ele><time>2026-04-11T08:42:04.872Z</time></trkpt><trkpt lat="45.97548" lon="10.3106594"><ele>406.8</ele><time>2026-04-11T08:42:06.871Z</time></trkpt><trkpt lat="45.9754552" lon="10.3107505"><ele>405.20000000000005</ele><time>2026-04-11T08:42:08.873Z</time></trkpt><trkpt lat="45.9754921" lon="10.3109834"><ele>403.6</ele><time>2026-04-11T08:42:09.872Z</time></trkpt><trkpt lat="45.9754886" lon="10.3110966"><ele>402.0</ele><time>2026-04-11T08:42:11.873Z</time></trkpt><trkpt lat="45.9755231" lon="10.3112049"><ele>402.0</ele><time>2026-04-11T08:42:13.872Z</time></trkpt><trkpt lat="45.9755965" lon="10.31128"><ele>402.0</ele><time>2026-04-11T08:42:16.871Z</time></trkpt><trkpt lat="45.9756078" lon="10.3113931"><ele>402.0</ele><time>2026-04-11T08:42:18.871Z</time></trkpt><trkpt lat="45.9756366" lon="10.3114791"><ele>402.0</ele><time>2026-04-11T08:42:20.773Z</time></trkpt><trkpt lat="45.9756839" lon="10.3115915"><ele>402.0</ele><time>2026-04-11T08:42:22.872Z</time></trkpt><trkpt lat="45.9757359" lon="10.3116881"><ele>402.0</ele><time>2026-04-11T08:42:24.873Z</time></trkpt><trkpt lat="45.9758016" lon="10.3117807"><ele>402.0</ele><time>2026-04-11T08:42:26.873Z</time></trkpt><trkpt lat="45.9758863" lon="10.3119259"><ele>402.0</ele><time>2026-04-11T08:42:28.872Z</time></trkpt><trkpt lat="45.9759294" lon="10.3120083"><ele>402.0</ele><time>2026-04-11T08:42:29.872Z</time></trkpt><trkpt lat="45.975968" lon="10.3120826"><ele>402.0</ele><time>2026-04-11T08:42:30.872Z</time></trkpt><trkpt lat="45.9760277" lon="10.3121934"><ele>402.0</ele><time>2026-04-11T08:42:32.872Z</time></trkpt><trkpt lat="45.9761074" lon="10.3122857"><ele>402.0</ele><time>2026-04-11T08:42:34.872Z</time></trkpt><trkpt lat="45.9761868" lon="10.3123587"><ele>402.0</ele><time>2026-04-11T08:42:36.872Z</time></trkpt><trkpt lat="45.9762445" lon="10.3124057"><ele>402.0</ele><time>2026-04-11T08:42:37.872Z</time></trkpt><trkpt lat="45.9763037" lon="10.3124493"><ele>402.0</ele><time>2026-04-11T08:42:38.872Z</time></trkpt><trkpt lat="45.9763713" lon="10.3125075"><ele>402.0</ele><time>2026-04-11T08:42:40.872Z</time></trkpt><trkpt lat="45.9764307" lon="10.3125808"><ele>402.0</ele><time>2026-04-11T08:42:42.872Z</time></trkpt><trkpt lat="45.9764721" lon="10.3126494"><ele>402.0</ele><time>2026-04-11T08:42:44.872Z</time></trkpt><trkpt lat="45.9765083" lon="10.3127904"><ele>402.0</ele><time>2026-04-11T08:42:47.871Z</time></trkpt><trkpt lat="45.9765315" lon="10.3129595"><ele>402.0</ele><time>2026-04-11T08:42:49.873Z</time></trkpt><trkpt lat="45.9765458" lon="10.3131391"><ele>402.0</ele><time>2026-04-11T08:42:51.872Z</time></trkpt><trkpt lat="45.9765496" lon="10.3132838"><ele>402.0</ele><time>2026-04-11T08:42:53.871Z</time></trkpt><trkpt lat="45.9766024" lon="10.313397"><ele>402.0</ele><time>2026-04-11T08:42:55.873Z</time></trkpt><trkpt lat="45.9766387" lon="10.3134867"><ele>399.6666666666667</ele><time>2026-04-11T08:42:57.871Z</time></trkpt><trkpt lat="45.9766622" lon="10.3135881"><ele>397.33333333333337</ele><time>2026-04-11T08:43:00.873Z</time></trkpt><trkpt lat="45.9767219" lon="10.3136684"><ele>395.0</ele><time>2026-04-11T08:43:03.873Z</time></trkpt><trkpt lat="45.9767936" lon="10.3137113"><ele>392.6666666666667</ele><time>2026-04-11T08:43:05.853Z</time></trkpt><trkpt lat="45.9768593" lon="10.3137616"><ele>390.33333333333337</ele><time>2026-04-11T08:43:06.872Z</time></trkpt><trkpt lat="45.9769255" lon="10.3138027"><ele>388.0</ele><time>2026-04-11T08:43:07.872Z</time></trkpt><trkpt lat="45.9769925" lon="10.3138433"><ele>387.50000000000006</ele><time>2026-04-11T08:43:08.873Z</time></trkpt><trkpt lat="45.9770547" lon="10.3138798"><ele>387.0</ele><time>2026-04-11T08:43:09.873Z</time></trkpt><trkpt lat="45.9771115" lon="10.3139214"><ele>386.5</ele><time>2026-04-11T08:43:10.871Z</time></trkpt><trkpt lat="45.9772037" lon="10.3139949"><ele>386.0</ele><time>2026-04-11T08:43:12.873Z</time></trkpt><trkpt lat="45.977285" lon="10.3140613"><ele>385.50000000000006</ele><time>2026-04-11T08:43:14.873Z</time></trkpt><trkpt lat="45.9773751" lon="10.3141125"><ele>385.0</ele><time>2026-04-11T08:43:17.871Z</time></trkpt><trkpt lat="45.9774385" lon="10.3141584"><ele>389.0</ele><time>2026-04-11T08:43:19.872Z</time></trkpt><trkpt lat="45.9775266" lon="10.3142182"><ele>393.0</ele><time>2026-04-11T08:43:21.871Z</time></trkpt><trkpt lat="45.9775895" lon="10.314245"><ele>397.0</ele><time>2026-04-11T08:43:22.872Z</time></trkpt><trkpt lat="45.9777003" lon="10.3143089"><ele>401.0</ele><time>2026-04-11T08:43:24.872Z</time></trkpt><trkpt lat="45.9778098" lon="10.3143619"><ele>405.0</ele><time>2026-04-11T08:43:26.872Z</time></trkpt><trkpt lat="45.9778718" lon="10.3143879"><ele>405.0</ele><time>2026-04-11T08:43:27.872Z</time></trkpt><trkpt lat="45.9779449" lon="10.3144064"><ele>405.0</ele><time>2026-04-11T08:43:28.873Z</time></trkpt><trkpt lat="45.978013" lon="10.3144324"><ele>405.0</ele><time>2026-04-11T08:43:29.872Z</time></trkpt><trkpt lat="45.9780689" lon="10.3144761"><ele>405.0</ele><time>2026-04-11T08:43:30.872Z</time></trkpt><trkpt lat="45.9781792" lon="10.3145607"><ele>405.0</ele><time>2026-04-11T08:43:32.871Z</time></trkpt><trkpt lat="45.9782398" lon="10.3146016"><ele>405.0</ele><time>2026-04-11T08:43:33.871Z</time></trkpt><trkpt lat="45.9783137" lon="10.3146479"><ele>406.71428571428567</ele><time>2026-04-11T08:43:34.872Z</time></trkpt><trkpt lat="45.978391" lon="10.3146962"><ele>408.42857142857144</ele><time>2026-04-11T08:43:35.872Z</time></trkpt><trkpt lat="45.9784567" lon="10.3147414"><ele>410.1428571428571</ele><time>2026-04-11T08:43:36.873Z</time></trkpt><trkpt lat="45.9785208" lon="10.314777"><ele>411.85714285714283</ele><time>2026-04-11T08:43:37.871Z</time></trkpt><trkpt lat="45.9785864" lon="10.3147981"><ele>413.57142857142856</ele><time>2026-04-11T08:43:38.871Z</time></trkpt><trkpt lat="45.97865" lon="10.3148119"><ele>415.2857142857143</ele><time>2026-04-11T08:43:39.871Z</time></trkpt><trkpt lat="45.9787161" lon="10.3148257"><ele>417.0</ele><time>2026-04-11T08:43:40.872Z</time></trkpt><trkpt lat="45.9788212" lon="10.3148204"><ele>415.0</ele><time>2026-04-11T08:43:42.872Z</time></trkpt><trkpt lat="45.9789133" lon="10.314773"><ele>413.0</ele><time>2026-04-11T08:43:44.871Z</time></trkpt><trkpt lat="45.9789887" lon="10.3147594"><ele>411.0</ele><time>2026-04-11T08:43:46.872Z</time></trkpt><trkpt lat="45.9791145" lon="10.3147452"><ele>409.0</ele><time>2026-04-11T08:43:48.873Z</time></trkpt><trkpt lat="45.9792094" lon="10.3146758"><ele>407.0</ele><time>2026-04-11T08:43:50.871Z</time></trkpt><trkpt lat="45.9793144" lon="10.314576"><ele>407.0</ele><time>2026-04-11T08:43:52.872Z</time></trkpt><trkpt lat="45.9793795" lon="10.3145346"><ele>407.0</ele><time>2026-04-11T08:43:53.872Z</time></trkpt><trkpt lat="45.9794822" lon="10.3145221"><ele>407.0</ele><time>2026-04-11T08:43:55.872Z</time></trkpt><trkpt lat="45.97959" lon="10.3145503"><ele>407.0</ele><time>2026-04-11T08:43:57.871Z</time></trkpt><trkpt lat="45.9797002" lon="10.3145681"><ele>407.0</ele><time>2026-04-11T08:43:59.872Z</time></trkpt><trkpt lat="45.9797822" lon="10.3145611"><ele>407.0</ele><time>2026-04-11T08:44:01.872Z</time></trkpt><trkpt lat="45.9798693" lon="10.3145387"><ele>407.0</ele><time>2026-04-11T08:44:04.871Z</time></trkpt><trkpt lat="45.979936" lon="10.3144815"><ele>407.0</ele><time>2026-04-11T08:44:06.872Z</time></trkpt><trkpt lat="45.9800143" lon="10.3144102"><ele>407.0</ele><time>2026-04-11T08:44:08.872Z</time></trkpt><trkpt lat="45.980146" lon="10.3143248"><ele>407.0</ele><time>2026-04-11T08:44:12.871Z</time></trkpt><trkpt lat="45.9801946" lon="10.3142362"><ele>406.20000000000005</ele><time>2026-04-11T08:44:13.872Z</time></trkpt><trkpt lat="45.9802866" lon="10.314132"><ele>405.4</ele><time>2026-04-11T08:44:15.872Z</time></trkpt><trkpt lat="45.9803606" lon="10.314047"><ele>404.6</ele><time>2026-04-11T08:44:17.872Z</time></trkpt><trkpt lat="45.9804263" lon="10.3139724"><ele>403.79999999999995</ele><time>2026-04-11T08:44:19.871Z</time></trkpt><trkpt lat="45.9805021" lon="10.3139763"><ele>403.0</ele><time>2026-04-11T08:44:21.871Z</time></trkpt><trkpt lat="45.980593" lon="10.3140431"><ele>403.00000000000006</ele><time>2026-04-11T08:44:23.872Z</time></trkpt><trkpt lat="45.9806889" lon="10.314084"><ele>403.0</ele><time>2026-04-11T08:44:25.872Z</time></trkpt><trkpt lat="45.9807649" lon="10.3141248"><ele>403.0</ele><time>2026-04-11T08:44:27.873Z</time></trkpt><trkpt lat="45.9808052" lon="10.3142061"><ele>403.0</ele><time>2026-04-11T08:44:30.871Z</time></trkpt><trkpt lat="45.9807773" lon="10.3142897"><ele>403.00000000000006</ele><time>2026-04-11T08:44:34.871Z</time></trkpt><trkpt lat="45.980768" lon="10.3143888"><ele>403.0</ele><time>2026-04-11T08:44:40.872Z</time></trkpt><trkpt lat="45.9808166" lon="10.314533"><ele>405.59999999999997</ele><time>2026-04-11T08:44:42.872Z</time></trkpt><trkpt lat="45.9808641" lon="10.3146496"><ele>408.2</ele><time>2026-04-11T08:44:43.873Z</time></trkpt><trkpt lat="45.9809124" lon="10.3147759"><ele>410.8</ele><time>2026-04-11T08:44:44.871Z</time></trkpt><trkpt lat="45.9809577" lon="10.3148897"><ele>413.4</ele><time>2026-04-11T08:44:45.871Z</time></trkpt><trkpt lat="45.9810052" lon="10.3149842"><ele>416.0</ele><time>2026-04-11T08:44:46.871Z</time></trkpt><trkpt lat="45.9810566" lon="10.3150793"><ele>415.99999999999994</ele><time>2026-04-11T08:44:47.873Z</time></trkpt><trkpt lat="45.9811066" lon="10.3151603"><ele>416.0</ele><time>2026-04-11T08:44:48.871Z</time></trkpt><trkpt lat="45.9811826" lon="10.3152822"><ele>416.0</ele><time>2026-04-11T08:44:50.872Z</time></trkpt><trkpt lat="45.9812293" lon="10.3153509"><ele>416.0</ele><time>2026-04-11T08:44:51.872Z</time></trkpt><trkpt lat="45.9812667" lon="10.3154332"><ele>415.99999999999994</ele><time>2026-04-11T08:44:52.872Z</time></trkpt><trkpt lat="45.9812927" lon="10.3155177"><ele>416.0</ele><time>2026-04-11T08:44:53.873Z</time></trkpt><trkpt lat="45.9812913" lon="10.3156137"><ele>413.49999999999994</ele><time>2026-04-11T08:44:54.871Z</time></trkpt><trkpt lat="45.9812798" lon="10.315708"><ele>411.0</ele><time>2026-04-11T08:44:55.872Z</time></trkpt><trkpt lat="45.9812684" lon="10.3158043"><ele>408.5</ele><time>2026-04-11T08:44:56.872Z</time></trkpt><trkpt lat="45.9812469" lon="10.3158929"><ele>406.0</ele><time>2026-04-11T08:44:57.872Z</time></trkpt><trkpt lat="45.9812011" lon="10.3160496"><ele>403.49999999999994</ele><time>2026-04-11T08:44:59.871Z</time></trkpt><trkpt lat="45.9812003" lon="10.3162036"><ele>401.0</ele><time>2026-04-11T08:45:01.872Z</time></trkpt><trkpt lat="45.9812133" lon="10.3163218"><ele>399.14285714285717</ele><time>2026-04-11T08:45:03.871Z</time></trkpt><trkpt lat="45.9812643" lon="10.3164363"><ele>397.28571428571433</ele><time>2026-04-11T08:45:05.872Z</time></trkpt><trkpt lat="45.9813084" lon="10.3165014"><ele>395.42857142857144</ele><time>2026-04-11T08:45:06.872Z</time></trkpt><trkpt lat="45.9813554" lon="10.3165692"><ele>393.57142857142856</ele><time>2026-04-11T08:45:07.872Z</time></trkpt><trkpt lat="45.9814097" lon="10.316642"><ele>391.7142857142857</ele><time>2026-04-11T08:45:08.872Z</time></trkpt><trkpt lat="45.9814615" lon="10.3167217"><ele>389.85714285714283</ele><time>2026-04-11T08:45:09.873Z</time></trkpt><trkpt lat="45.9815002" lon="10.3167938"><ele>388.0</ele><time>2026-04-11T08:45:10.872Z</time></trkpt><trkpt lat="45.9815682" lon="10.3168863"><ele>388.00000000000006</ele><time>2026-04-11T08:45:12.872Z</time></trkpt><trkpt lat="45.9816212" lon="10.3169496"><ele>388.0</ele><time>2026-04-11T08:45:14.871Z</time></trkpt><trkpt lat="45.9817119" lon="10.3170271"><ele>388.0</ele><time>2026-04-11T08:45:17.872Z</time></trkpt><trkpt lat="45.981809" lon="10.3170066"><ele>388.0</ele><time>2026-04-11T08:45:19.872Z</time></trkpt><trkpt lat="45.9818642" lon="10.3169542"><ele>388.00000000000006</ele><time>2026-04-11T08:45:20.873Z</time></trkpt><trkpt lat="45.9819386" lon="10.3168876"><ele>388.0</ele><time>2026-04-11T08:45:21.871Z</time></trkpt><trkpt lat="45.9820206" lon="10.3168083"><ele>387.4285714285714</ele><time>2026-04-11T08:45:22.871Z</time></trkpt><trkpt lat="45.982089" lon="10.3167337"><ele>386.8571428571429</ele><time>2026-04-11T08:45:23.872Z</time></trkpt><trkpt lat="45.98215" lon="10.3166651"><ele>386.2857142857143</ele><time>2026-04-11T08:45:24.873Z</time></trkpt><trkpt lat="45.9822072" lon="10.3166104"><ele>385.71428571428567</ele><time>2026-04-11T08:45:25.872Z</time></trkpt><trkpt lat="45.9822689" lon="10.3165546"><ele>385.1428571428571</ele><time>2026-04-11T08:45:26.873Z</time></trkpt><trkpt lat="45.9823324" lon="10.3165022"><ele>384.57142857142856</ele><time>2026-04-11T08:45:27.873Z</time></trkpt><trkpt lat="45.9823892" lon="10.3164615"><ele>384.0</ele><time>2026-04-11T08:45:28.872Z</time></trkpt><trkpt lat="45.9824594" lon="10.3164296"><ele>383.4</ele><time>2026-04-11T08:45:29.872Z</time></trkpt><trkpt lat="45.9825217" lon="10.3164084"><ele>382.79999999999995</ele><time>2026-04-11T08:45:30.872Z</time></trkpt><trkpt lat="45.9826426" lon="10.3163522"><ele>382.20000000000005</ele><time>2026-04-11T08:45:32.872Z</time></trkpt><trkpt lat="45.9827561" lon="10.3162818"><ele>381.6</ele><time>2026-04-11T08:45:34.871Z</time></trkpt><trkpt lat="45.9828613" lon="10.3162097"><ele>381.0</ele><time>2026-04-11T08:45:36.873Z</time></trkpt><trkpt lat="45.9829423" lon="10.3162632"><ele>383.5</ele><time>2026-04-11T08:45:38.872Z</time></trkpt><trkpt lat="45.9830303" lon="10.3162267"><ele>386.0</ele><time>2026-04-11T08:45:40.872Z</time></trkpt><trkpt lat="45.9831124" lon="10.316207"><ele>388.5</ele><time>2026-04-11T08:45:42.872Z</time></trkpt><trkpt lat="45.9832939" lon="10.3161787"><ele>391.0</ele><time>2026-04-11T08:45:49.872Z</time></trkpt><trkpt lat="45.9833217" lon="10.3160404"><ele>391.0</ele><time>2026-04-11T08:45:50.872Z</time></trkpt><trkpt lat="45.9832436" lon="10.3161198"><ele>391.0</ele><time>2026-04-11T08:45:59.871Z</time></trkpt><trkpt lat="45.9831919" lon="10.3162612"><ele>391.0</ele><time>2026-04-11T08:46:01.871Z</time></trkpt><trkpt lat="45.98318" lon="10.3163934"><ele>391.0</ele><time>2026-04-11T08:46:03.873Z</time></trkpt><trkpt lat="45.983192" lon="10.316503"><ele>391.0</ele><time>2026-04-11T08:46:05.872Z</time></trkpt><trkpt lat="45.983219" lon="10.316624"><ele>389.33333333333337</ele><time>2026-04-11T08:46:07.873Z</time></trkpt><trkpt lat="45.9832575" lon="10.3167452"><ele>387.6666666666667</ele><time>2026-04-11T08:46:09.873Z</time></trkpt><trkpt lat="45.9833204" lon="10.3168182"><ele>386.0</ele><time>2026-04-11T08:46:11.872Z</time></trkpt><trkpt lat="45.9833792" lon="10.316897"><ele>384.33333333333337</ele><time>2026-04-11T08:46:13.872Z</time></trkpt><trkpt lat="45.9834403" lon="10.3169902"><ele>382.6666666666667</ele><time>2026-04-11T08:46:15.872Z</time></trkpt><trkpt lat="45.9834596" lon="10.3171377"><ele>381.0</ele><time>2026-04-11T08:46:17.872Z</time></trkpt><trkpt lat="45.9834999" lon="10.3172271"><ele>377.75</ele><time>2026-04-11T08:46:19.871Z</time></trkpt><trkpt lat="45.9834785" lon="10.3173372"><ele>374.5</ele><time>2026-04-11T08:46:22.872Z</time></trkpt><trkpt lat="45.9833945" lon="10.317399"><ele>371.25</ele><time>2026-04-11T08:46:24.872Z</time></trkpt><trkpt lat="45.983329" lon="10.3173833"><ele>368.0</ele><time>2026-04-11T08:46:25.873Z</time></trkpt><trkpt lat="45.9830939" lon="10.3174453"><ele>368.0</ele><time>2026-04-11T08:46:26.872Z</time></trkpt><trkpt lat="45.9829311" lon="10.3175667"><ele>368.0</ele><time>2026-04-11T08:46:27.872Z</time></trkpt><trkpt lat="45.982857" lon="10.3176066"><ele>368.0</ele><time>2026-04-11T08:46:28.872Z</time></trkpt><trkpt lat="45.9826935" lon="10.3176276"><ele>368.0</ele><time>2026-04-11T08:46:29.872Z</time></trkpt><trkpt lat="45.9825927" lon="10.3176877"><ele>367.59999999999997</ele><time>2026-04-11T08:46:30.873Z</time></trkpt><trkpt lat="45.9824934" lon="10.3177593"><ele>367.2</ele><time>2026-04-11T08:46:31.871Z</time></trkpt><trkpt lat="45.982402" lon="10.3177666"><ele>366.8</ele><time>2026-04-11T08:46:32.872Z</time></trkpt><trkpt lat="45.9823055" lon="10.3177964"><ele>366.4</ele><time>2026-04-11T08:46:33.872Z</time></trkpt><trkpt lat="45.9822108" lon="10.3178559"><ele>366.0</ele><time>2026-04-11T08:46:34.873Z</time></trkpt><trkpt lat="45.9821128" lon="10.3178736"><ele>366.0</ele><time>2026-04-11T08:46:35.873Z</time></trkpt><trkpt lat="45.981988" lon="10.317882"><ele>366.0</ele><time>2026-04-11T08:46:36.871Z</time></trkpt><trkpt lat="45.9818839" lon="10.3178955"><ele>366.0</ele><time>2026-04-11T08:46:37.872Z</time></trkpt><trkpt lat="45.9817106" lon="10.3178941"><ele>366.0</ele><time>2026-04-11T08:46:39.872Z</time></trkpt><trkpt lat="45.981621" lon="10.3178985"><ele>364.0</ele><time>2026-04-11T08:46:40.872Z</time></trkpt><trkpt lat="45.9815035" lon="10.3178155"><ele>362.0</ele><time>2026-04-11T08:46:41.871Z</time></trkpt><trkpt lat="45.981311" lon="10.3176787"><ele>360.0</ele><time>2026-04-11T08:46:42.871Z</time></trkpt><trkpt lat="45.9811342" lon="10.3173469"><ele>357.0</ele><time>2026-04-11T08:46:43.873Z</time></trkpt><trkpt lat="45.9808649" lon="10.3170781"><ele>354.0</ele><time>2026-04-11T08:46:44.872Z</time></trkpt><trkpt lat="45.9806814" lon="10.3168881"><ele>354.0</ele><time>2026-04-11T08:46:45.873Z</time></trkpt><trkpt lat="45.980526" lon="10.3167422"><ele>354.0</ele><time>2026-04-11T08:46:46.873Z</time></trkpt><trkpt lat="45.9803779" lon="10.3166274"><ele>354.0</ele><time>2026-04-11T08:46:47.873Z</time></trkpt><trkpt lat="45.980273" lon="10.3164826"><ele>354.0</ele><time>2026-04-11T08:46:48.872Z</time></trkpt><trkpt lat="45.9801046" lon="10.316431"><ele>354.0</ele><time>2026-04-11T08:46:49.871Z</time></trkpt><trkpt lat="45.9799719" lon="10.3163168"><ele>354.0</ele><time>2026-04-11T08:46:50.874Z</time></trkpt><trkpt lat="45.9798593" lon="10.3162392"><ele>352.5</ele><time>2026-04-11T08:46:51.874Z</time></trkpt><trkpt lat="45.9797547" lon="10.316147"><ele>351.0</ele><time>2026-04-11T08:46:52.872Z</time></trkpt><trkpt lat="45.9796413" lon="10.3160485"><ele>349.5</ele><time>2026-04-11T08:46:53.873Z</time></trkpt><trkpt lat="45.9794835" lon="10.3160708"><ele>348.0</ele><time>2026-04-11T08:46:54.873Z</time></trkpt><trkpt lat="45.9793039" lon="10.3160793"><ele>345.6666666666667</ele><time>2026-04-11T08:46:55.873Z</time></trkpt><trkpt lat="45.9791663" lon="10.3160371"><ele>343.33333333333337</ele><time>2026-04-11T08:46:56.873Z</time></trkpt><trkpt lat="45.9789504" lon="10.3160716"><ele>341.0</ele><time>2026-04-11T08:46:57.873Z</time></trkpt><trkpt lat="45.9787501" lon="10.3161102"><ele>341.0</ele><time>2026-04-11T08:46:58.874Z</time></trkpt><trkpt lat="45.9785678" lon="10.3161779"><ele>341.0</ele><time>2026-04-11T08:46:59.873Z</time></trkpt><trkpt lat="45.9784029" lon="10.3162716"><ele>341.0</ele><time>2026-04-11T08:47:00.874Z</time></trkpt><trkpt lat="45.9782696" lon="10.3163608"><ele>333.0</ele><time>2026-04-11T08:47:01.873Z</time></trkpt><trkpt lat="45.9781177" lon="10.3165068"><ele>325.0</ele><time>2026-04-11T08:47:02.872Z</time></trkpt><trkpt lat="45.9779879" lon="10.3166382"><ele>317.0</ele><time>2026-04-11T08:47:03.873Z</time></trkpt><trkpt lat="45.9778895" lon="10.3167467"><ele>317.0</ele><time>2026-04-11T08:47:04.873Z</time></trkpt><trkpt lat="45.9777945" lon="10.316919"><ele>317.0</ele><time>2026-04-11T08:47:05.874Z</time></trkpt><trkpt lat="45.9777032" lon="10.3171331"><ele>317.0</ele><time>2026-04-11T08:47:06.873Z</time></trkpt><trkpt lat="45.9775869" lon="10.3174898"><ele>310.0</ele><time>2026-04-11T08:47:07.872Z</time></trkpt><trkpt lat="45.9774931" lon="10.3177735"><ele>303.0</ele><time>2026-04-11T08:47:08.873Z</time></trkpt><trkpt lat="45.9773899" lon="10.3181121"><ele>303.0</ele><time>2026-04-11T08:47:09.874Z</time></trkpt><trkpt lat="45.9772923" lon="10.318436"><ele>303.0</ele><time>2026-04-11T08:47:10.873Z</time></trkpt><trkpt lat="45.9771837" lon="10.3187686"><ele>304.0</ele><time>2026-04-11T08:47:11.873Z</time></trkpt><trkpt lat="45.9770735" lon="10.319119"><ele>305.0</ele><time>2026-04-11T08:47:12.873Z</time></trkpt><trkpt lat="45.9769747" lon="10.3194341"><ele>304.6666666666667</ele><time>2026-04-11T08:47:13.872Z</time></trkpt><trkpt lat="45.9768968" lon="10.3197341"><ele>304.3333333333333</ele><time>2026-04-11T08:47:14.872Z</time></trkpt><trkpt lat="45.9768701" lon="10.3199044"><ele>304.0</ele><time>2026-04-11T08:47:15.874Z</time></trkpt><trkpt lat="45.9767914" lon="10.3201149"><ele>304.0</ele><time>2026-04-11T08:47:16.873Z</time></trkpt><trkpt lat="45.9767288" lon="10.3203216"><ele>304.0</ele><time>2026-04-11T08:47:17.873Z</time></trkpt><trkpt lat="45.9766552" lon="10.3205475"><ele>304.0</ele><time>2026-04-11T08:47:18.873Z</time></trkpt><trkpt lat="45.9766111" lon="10.3206963"><ele>304.0</ele><time>2026-04-11T08:47:19.873Z</time></trkpt><trkpt lat="45.9766211" lon="10.3207985"><ele>304.3333333333333</ele><time>2026-04-11T08:47:20.873Z</time></trkpt><trkpt lat="45.9765772" lon="10.3209384"><ele>304.66666666666663</ele><time>2026-04-11T08:47:21.873Z</time></trkpt><trkpt lat="45.9765297" lon="10.321063"><ele>305.0</ele><time>2026-04-11T08:47:22.873Z</time></trkpt><trkpt lat="45.9764946" lon="10.3211608"><ele>305.3333333333333</ele><time>2026-04-11T08:47:23.873Z</time></trkpt><trkpt lat="45.9764633" lon="10.3212648"><ele>305.6666666666667</ele><time>2026-04-11T08:47:24.872Z</time></trkpt><trkpt lat="45.97642" lon="10.3213712"><ele>306.0</ele><time>2026-04-11T08:47:25.873Z</time></trkpt><trkpt lat="45.9763574" lon="10.3214724"><ele>306.0</ele><time>2026-04-11T08:47:26.873Z</time></trkpt><trkpt lat="45.9761896" lon="10.3213811"><ele>306.0</ele><time>2026-04-11T08:47:27.872Z</time></trkpt><trkpt lat="45.9760364" lon="10.3212121"><ele>306.0</ele><time>2026-04-11T08:47:28.872Z</time></trkpt><trkpt lat="45.9759035" lon="10.3212147"><ele>307.0</ele><time>2026-04-11T08:47:29.873Z</time></trkpt><trkpt lat="45.9757252" lon="10.3211795"><ele>308.0</ele><time>2026-04-11T08:47:30.872Z</time></trkpt><trkpt lat="45.9756152" lon="10.3210704"><ele>309.0</ele><time>2026-04-11T08:47:31.874Z</time></trkpt><trkpt lat="45.9754001" lon="10.3209397"><ele>309.0</ele><time>2026-04-11T08:47:32.873Z</time></trkpt><trkpt lat="45.9752607" lon="10.3208598"><ele>309.0</ele><time>2026-04-11T08:47:33.873Z</time></trkpt><trkpt lat="45.9751201" lon="10.3208216"><ele>309.0</ele><time>2026-04-11T08:47:34.874Z</time></trkpt><trkpt lat="45.9749453" lon="10.3207976"><ele>309.0</ele><time>2026-04-11T08:47:35.872Z</time></trkpt><trkpt lat="45.974754" lon="10.3207791"><ele>309.0</ele><time>2026-04-11T08:47:36.872Z</time></trkpt><trkpt lat="45.9746249" lon="10.3206679"><ele>309.0</ele><time>2026-04-11T08:47:37.873Z</time></trkpt><trkpt lat="45.9744877" lon="10.3206469"><ele>308.0</ele><time>2026-04-11T08:47:38.872Z</time></trkpt><trkpt lat="45.9743368" lon="10.3205525"><ele>307.0</ele><time>2026-04-11T08:47:39.872Z</time></trkpt><trkpt lat="45.9741927" lon="10.3204996"><ele>306.0</ele><time>2026-04-11T08:47:40.874Z</time></trkpt><trkpt lat="45.9740646" lon="10.320411"><ele>306.0</ele><time>2026-04-11T08:47:41.873Z</time></trkpt><trkpt lat="45.9739401" lon="10.320343"><ele>306.0</ele><time>2026-04-11T08:47:42.872Z</time></trkpt><trkpt lat="45.973799" lon="10.3202956"><ele>306.0</ele><time>2026-04-11T08:47:43.873Z</time></trkpt><trkpt lat="45.9736579" lon="10.3202434"><ele>306.0</ele><time>2026-04-11T08:47:44.873Z</time></trkpt><trkpt lat="45.9735224" lon="10.3201707"><ele>306.0</ele><time>2026-04-11T08:47:45.872Z</time></trkpt><trkpt lat="45.973391" lon="10.3201167"><ele>306.0</ele><time>2026-04-11T08:47:46.874Z</time></trkpt><trkpt lat="45.9732598" lon="10.3200678"><ele>306.0</ele><time>2026-04-11T08:47:47.874Z</time></trkpt><trkpt lat="45.9731182" lon="10.320012"><ele>306.0</ele><time>2026-04-11T08:47:48.874Z</time></trkpt><trkpt lat="45.9729621" lon="10.3199438"><ele>306.6666666666667</ele><time>2026-04-11T08:47:49.874Z</time></trkpt><trkpt lat="45.9728284" lon="10.3198564"><ele>307.33333333333337</ele><time>2026-04-11T08:47:50.874Z</time></trkpt><trkpt lat="45.9726823" lon="10.3197847"><ele>308.0</ele><time>2026-04-11T08:47:51.873Z</time></trkpt><trkpt lat="45.9725298" lon="10.3197177"><ele>307.25</ele><time>2026-04-11T08:47:52.873Z</time></trkpt><trkpt lat="45.9723819" lon="10.3196355"><ele>306.5</ele><time>2026-04-11T08:47:53.873Z</time></trkpt><trkpt lat="45.9722445" lon="10.3195768"><ele>305.75</ele><time>2026-04-11T08:47:54.873Z</time></trkpt><trkpt lat="45.9721237" lon="10.3194889"><ele>305.0</ele><time>2026-04-11T08:47:55.873Z</time></trkpt><trkpt lat="45.9720058" lon="10.3193894"><ele>305.0</ele><time>2026-04-11T08:47:56.873Z</time></trkpt><trkpt lat="45.971896" lon="10.3193296"><ele>305.0</ele><time>2026-04-11T08:47:57.874Z</time></trkpt><trkpt lat="45.971749" lon="10.3193153"><ele>305.0</ele><time>2026-04-11T08:47:58.874Z</time></trkpt><trkpt lat="45.9716078" lon="10.3192824"><ele>305.0</ele><time>2026-04-11T08:47:59.873Z</time></trkpt><trkpt lat="45.9714448" lon="10.3191994"><ele>305.33333333333337</ele><time>2026-04-11T08:48:00.873Z</time></trkpt><trkpt lat="45.9712919" lon="10.3191513"><ele>305.6666666666667</ele><time>2026-04-11T08:48:01.873Z</time></trkpt><trkpt lat="45.9711343" lon="10.3190589"><ele>306.0</ele><time>2026-04-11T08:48:02.872Z</time></trkpt><trkpt lat="45.9709821" lon="10.3190176"><ele>306.3333333333333</ele><time>2026-04-11T08:48:03.873Z</time></trkpt><trkpt lat="45.9708317" lon="10.3189746"><ele>306.66666666666663</ele><time>2026-04-11T08:48:04.873Z</time></trkpt><trkpt lat="45.9706652" lon="10.3189092"><ele>307.0</ele><time>2026-04-11T08:48:05.873Z</time></trkpt><trkpt lat="45.9705078" lon="10.3188165"><ele>306.0</ele><time>2026-04-11T08:48:06.873Z</time></trkpt><trkpt lat="45.9703467" lon="10.3187776"><ele>305.0</ele><time>2026-04-11T08:48:07.873Z</time></trkpt><trkpt lat="45.9701875" lon="10.3187136"><ele>304.0</ele><time>2026-04-11T08:48:08.873Z</time></trkpt><trkpt lat="45.9700326" lon="10.3186412"><ele>304.3333333333333</ele><time>2026-04-11T08:48:09.873Z</time></trkpt><trkpt lat="45.9698854" lon="10.3185911"><ele>304.6666666666667</ele><time>2026-04-11T08:48:10.873Z</time></trkpt><trkpt lat="45.9697413" lon="10.3185018"><ele>305.0</ele><time>2026-04-11T08:48:11.873Z</time></trkpt><trkpt lat="45.969589" lon="10.3184445"><ele>305.0</ele><time>2026-04-11T08:48:12.874Z</time></trkpt><trkpt lat="45.9694602" lon="10.3183954"><ele>305.0</ele><time>2026-04-11T08:48:13.873Z</time></trkpt><trkpt lat="45.9693258" lon="10.3183525"><ele>305.0</ele><time>2026-04-11T08:48:14.873Z</time></trkpt><trkpt lat="45.9692159" lon="10.318307"><ele>305.0</ele><time>2026-04-11T08:48:15.872Z</time></trkpt><trkpt lat="45.9691181" lon="10.3182498"><ele>305.0</ele><time>2026-04-11T08:48:16.873Z</time></trkpt><trkpt lat="45.9690371" lon="10.3182288"><ele>305.0</ele><time>2026-04-11T08:48:17.872Z</time></trkpt><trkpt lat="45.9689662" lon="10.3182083"><ele>305.0</ele><time>2026-04-11T08:48:18.873Z</time></trkpt><trkpt lat="45.9689042" lon="10.3182447"><ele>305.0</ele><time>2026-04-11T08:48:22.873Z</time></trkpt><trkpt lat="45.9688799" lon="10.318354"><ele>305.0</ele><time>2026-04-11T08:48:24.873Z</time></trkpt><trkpt lat="45.9688716" lon="10.3184482"><ele>305.0</ele><time>2026-04-11T08:48:25.872Z</time></trkpt><trkpt lat="45.9688532" lon="10.3185773"><ele>305.0</ele><time>2026-04-11T08:48:26.873Z</time></trkpt><trkpt lat="45.9688444" lon="10.3187181"><ele>305.0</ele><time>2026-04-11T08:48:27.873Z</time></trkpt><trkpt lat="45.9688277" lon="10.3188411"><ele>305.0</ele><time>2026-04-11T08:48:28.873Z</time></trkpt><trkpt lat="45.9687579" lon="10.3189658"><ele>305.0</ele><time>2026-04-11T08:48:30.873Z</time></trkpt><trkpt lat="45.9686967" lon="10.3190399"><ele>305.0</ele><time>2026-04-11T08:48:32.872Z</time></trkpt><trkpt lat="45.9686633" lon="10.3191478"><ele>305.4</ele><time>2026-04-11T08:48:34.874Z</time></trkpt><trkpt lat="45.9685781" lon="10.319221"><ele>305.8</ele><time>2026-04-11T08:48:36.873Z</time></trkpt><trkpt lat="45.9684991" lon="10.3191384"><ele>306.2</ele><time>2026-04-11T08:48:37.873Z</time></trkpt><trkpt lat="45.9683981" lon="10.3191464"><ele>306.6</ele><time>2026-04-11T08:48:38.874Z</time></trkpt><trkpt lat="45.968318" lon="10.319077"><ele>307.0</ele><time>2026-04-11T08:48:39.874Z</time></trkpt><trkpt lat="45.9682405" lon="10.3189747"><ele>307.2</ele><time>2026-04-11T08:48:40.873Z</time></trkpt><trkpt lat="45.9681617" lon="10.3189116"><ele>307.4</ele><time>2026-04-11T08:48:41.873Z</time></trkpt><trkpt lat="45.9680943" lon="10.3188659"><ele>307.6</ele><time>2026-04-11T08:48:42.872Z</time></trkpt><trkpt lat="45.967972" lon="10.3187486"><ele>307.8</ele><time>2026-04-11T08:48:43.873Z</time></trkpt><trkpt lat="45.9678832" lon="10.318675"><ele>308.0</ele><time>2026-04-11T08:48:44.872Z</time></trkpt><trkpt lat="45.9677944" lon="10.3186215"><ele>307.4</ele><time>2026-04-11T08:48:45.873Z</time></trkpt><trkpt lat="45.967713" lon="10.3185594"><ele>306.8</ele><time>2026-04-11T08:48:46.874Z</time></trkpt><trkpt lat="45.9676481" lon="10.318485"><ele>306.2</ele><time>2026-04-11T08:48:47.873Z</time></trkpt><trkpt lat="45.9675817" lon="10.318384"><ele>305.6</ele><time>2026-04-11T08:48:50.874Z</time></trkpt><trkpt lat="45.9675253" lon="10.3184435"><ele>305.0</ele><time>2026-04-11T08:48:51.872Z</time></trkpt><trkpt lat="45.9674322" lon="10.3185824"><ele>305.0</ele><time>2026-04-11T08:48:53.872Z</time></trkpt><trkpt lat="45.96735" lon="10.3187501"><ele>305.0</ele><time>2026-04-11T08:48:54.873Z</time></trkpt><trkpt lat="45.9672966" lon="10.3188931"><ele>305.0</ele><time>2026-04-11T08:48:55.873Z</time></trkpt><trkpt lat="45.9672285" lon="10.3190295"><ele>305.0</ele><time>2026-04-11T08:48:56.873Z</time></trkpt><trkpt lat="45.9671705" lon="10.3191533"><ele>306.0</ele><time>2026-04-11T08:48:57.873Z</time></trkpt><trkpt lat="45.9671283" lon="10.3192854"><ele>307.0</ele><time>2026-04-11T08:48:58.872Z</time></trkpt><trkpt lat="45.9670683" lon="10.3193984"><ele>308.0</ele><time>2026-04-11T08:48:59.872Z</time></trkpt><trkpt lat="45.9669969" lon="10.3195646"><ele>309.0</ele><time>2026-04-11T08:49:00.874Z</time></trkpt><trkpt lat="45.966962" lon="10.3197717"><ele>310.0</ele><time>2026-04-11T08:49:01.872Z</time></trkpt><trkpt lat="45.9668984" lon="10.3199767"><ele>311.0</ele><time>2026-04-11T08:49:02.873Z</time></trkpt><trkpt lat="45.966894" lon="10.3201924"><ele>312.0</ele><time>2026-04-11T08:49:03.874Z</time></trkpt><trkpt lat="45.9668826" lon="10.3203172"><ele>313.0</ele><time>2026-04-11T08:49:04.872Z</time></trkpt><trkpt lat="45.9668791" lon="10.3204497"><ele>313.0</ele><time>2026-04-11T08:49:05.873Z</time></trkpt><trkpt lat="45.9668869" lon="10.3205597"><ele>313.0</ele><time>2026-04-11T08:49:06.873Z</time></trkpt><trkpt lat="45.9668339" lon="10.3206793"><ele>313.0</ele><time>2026-04-11T08:49:08.872Z</time></trkpt><trkpt lat="45.9667508" lon="10.320705"><ele>313.0</ele><time>2026-04-11T08:49:10.873Z</time></trkpt><trkpt lat="45.9666212" lon="10.3205486"><ele>313.0</ele><time>2026-04-11T08:49:12.873Z</time></trkpt><trkpt lat="45.9665184" lon="10.32043"><ele>313.75</ele><time>2026-04-11T08:49:13.873Z</time></trkpt><trkpt lat="45.9664408" lon="10.3203522"><ele>314.5</ele><time>2026-04-11T08:49:14.873Z</time></trkpt><trkpt lat="45.9663961" lon="10.3202025"><ele>315.25</ele><time>2026-04-11T08:49:15.874Z</time></trkpt><trkpt lat="45.9663027" lon="10.3200681"><ele>316.0</ele><time>2026-04-11T08:49:16.873Z</time></trkpt><trkpt lat="45.9662241" lon="10.319942"><ele>316.0</ele><time>2026-04-11T08:49:17.873Z</time></trkpt><trkpt lat="45.9661482" lon="10.3198118"><ele>316.0</ele><time>2026-04-11T08:49:18.873Z</time></trkpt><trkpt lat="45.9660902" lon="10.3197732"><ele>316.0</ele><time>2026-04-11T08:49:19.873Z</time></trkpt><trkpt lat="45.9660347" lon="10.319701"><ele>316.0</ele><time>2026-04-11T08:49:20.873Z</time></trkpt><trkpt lat="45.9659425" lon="10.3195606"><ele>316.0</ele><time>2026-04-11T08:49:22.874Z</time></trkpt><trkpt lat="45.9658661" lon="10.319528"><ele>318.20000000000005</ele><time>2026-04-11T08:49:23.872Z</time></trkpt><trkpt lat="45.9658049" lon="10.3194883"><ele>320.40000000000003</ele><time>2026-04-11T08:49:24.873Z</time></trkpt><trkpt lat="45.9657376" lon="10.3194576"><ele>322.6</ele><time>2026-04-11T08:49:25.872Z</time></trkpt><trkpt lat="45.9656121" lon="10.3193506"><ele>324.8</ele><time>2026-04-11T08:49:26.873Z</time></trkpt><trkpt lat="45.9655285" lon="10.3192938"><ele>327.0</ele><time>2026-04-11T08:49:27.874Z</time></trkpt><trkpt lat="45.9653836" lon="10.3191911"><ele>327.0</ele><time>2026-04-11T08:49:28.873Z</time></trkpt><trkpt lat="45.9652751" lon="10.3191121"><ele>327.0</ele><time>2026-04-11T08:49:29.874Z</time></trkpt><trkpt lat="45.9651634" lon="10.3190492"><ele>327.0</ele><time>2026-04-11T08:49:30.874Z</time></trkpt><trkpt lat="45.9650925" lon="10.3189823"><ele>327.0</ele><time>2026-04-11T08:49:31.873Z</time></trkpt><trkpt lat="45.9650138" lon="10.3188958"><ele>327.0</ele><time>2026-04-11T08:49:32.874Z</time></trkpt><trkpt lat="45.9648975" lon="10.3188135"><ele>327.0</ele><time>2026-04-11T08:49:34.874Z</time></trkpt><trkpt lat="45.9648219" lon="10.318766"><ele>327.0</ele><time>2026-04-11T08:49:35.873Z</time></trkpt><trkpt lat="45.9647473" lon="10.3186755"><ele>327.0</ele><time>2026-04-11T08:49:36.874Z</time></trkpt><trkpt lat="45.9646685" lon="10.3185761"><ele>327.0</ele><time>2026-04-11T08:49:37.873Z</time></trkpt><trkpt lat="45.9645764" lon="10.3184637"><ele>327.0</ele><time>2026-04-11T08:49:38.873Z</time></trkpt><trkpt lat="45.964505" lon="10.3183691"><ele>327.0</ele><time>2026-04-11T08:49:39.872Z</time></trkpt><trkpt lat="45.9644423" lon="10.318267"><ele>327.0</ele><time>2026-04-11T08:49:40.873Z</time></trkpt><trkpt lat="45.9643628" lon="10.3181859"><ele>327.0</ele><time>2026-04-11T08:49:41.873Z</time></trkpt><trkpt lat="45.9643055" lon="10.3181283"><ele>327.0</ele><time>2026-04-11T08:49:42.872Z</time></trkpt><trkpt lat="45.9642509" lon="10.3180509"><ele>327.0</ele><time>2026-04-11T08:49:43.873Z</time></trkpt><trkpt lat="45.9641538" lon="10.3179638"><ele>326.5</ele><time>2026-04-11T08:49:45.872Z</time></trkpt><trkpt lat="45.9640893" lon="10.3179299"><ele>326.0</ele><time>2026-04-11T08:49:46.872Z</time></trkpt><trkpt lat="45.9640107" lon="10.3179031"><ele>325.5</ele><time>2026-04-11T08:49:47.873Z</time></trkpt><trkpt lat="45.9638977" lon="10.3178241"><ele>325.0</ele><time>2026-04-11T08:49:49.872Z</time></trkpt><trkpt lat="45.9638379" lon="10.3177709"><ele>324.5</ele><time>2026-04-11T08:49:50.872Z</time></trkpt><trkpt lat="45.9637731" lon="10.3177361"><ele>324.0</ele><time>2026-04-11T08:49:51.874Z</time></trkpt><trkpt lat="45.9636829" lon="10.3176599"><ele>324.0</ele><time>2026-04-11T08:49:52.874Z</time></trkpt><trkpt lat="45.9636006" lon="10.3176376"><ele>324.0</ele><time>2026-04-11T08:49:53.873Z</time></trkpt><trkpt lat="45.9634782" lon="10.3175393"><ele>324.0</ele><time>2026-04-11T08:49:54.874Z</time></trkpt><trkpt lat="45.9633856" lon="10.3174774"><ele>324.0</ele><time>2026-04-11T08:49:55.873Z</time></trkpt><trkpt lat="45.9632843" lon="10.317415"><ele>324.0</ele><time>2026-04-11T08:49:56.872Z</time></trkpt><trkpt lat="45.9631306" lon="10.3173861"><ele>329.0</ele><time>2026-04-11T08:49:57.873Z</time></trkpt><trkpt lat="45.9629917" lon="10.3173377"><ele>334.0</ele><time>2026-04-11T08:49:58.873Z</time></trkpt><trkpt lat="45.9628554" lon="10.3173004"><ele>339.0</ele><time>2026-04-11T08:49:59.872Z</time></trkpt><trkpt lat="45.9627001" lon="10.3172842"><ele>344.0</ele><time>2026-04-11T08:50:00.873Z</time></trkpt><trkpt lat="45.9625703" lon="10.3172784"><ele>347.2</ele><time>2026-04-11T08:50:01.872Z</time></trkpt><trkpt lat="45.9624663" lon="10.3172371"><ele>350.4</ele><time>2026-04-11T08:50:02.872Z</time></trkpt><trkpt lat="45.9623971" lon="10.3171778"><ele>353.6</ele><time>2026-04-11T08:50:03.873Z</time></trkpt><trkpt lat="45.9622794" lon="10.3171245"><ele>356.8</ele><time>2026-04-11T08:50:04.873Z</time></trkpt><trkpt lat="45.9621676" lon="10.317071"><ele>360.0</ele><time>2026-04-11T08:50:11.872Z</time></trkpt><trkpt lat="45.9620601" lon="10.3170289"><ele>355.6</ele><time>2026-04-11T08:50:13.874Z</time></trkpt><trkpt lat="45.9619429" lon="10.3169941"><ele>351.2</ele><time>2026-04-11T08:50:15.873Z</time></trkpt><trkpt lat="45.9618588" lon="10.316983"><ele>346.79999999999995</ele><time>2026-04-11T08:50:16.872Z</time></trkpt><trkpt lat="45.9617935" lon="10.3169218"><ele>342.4</ele><time>2026-04-11T08:50:17.872Z</time></trkpt><trkpt lat="45.9617248" lon="10.3168568"><ele>338.0</ele><time>2026-04-11T08:50:18.873Z</time></trkpt><trkpt lat="45.9616509" lon="10.316775"><ele>338.0</ele><time>2026-04-11T08:50:19.872Z</time></trkpt><trkpt lat="45.9615895" lon="10.3167173"><ele>338.0</ele><time>2026-04-11T08:50:20.874Z</time></trkpt><trkpt lat="45.9615265" lon="10.3166558"><ele>338.0</ele><time>2026-04-11T08:50:21.874Z</time></trkpt><trkpt lat="45.9614712" lon="10.316574"><ele>338.0</ele><time>2026-04-11T08:50:22.874Z</time></trkpt><trkpt lat="45.9614072" lon="10.3165054"><ele>338.0</ele><time>2026-04-11T08:50:23.872Z</time></trkpt><trkpt lat="45.961341" lon="10.3164266"><ele>338.0</ele><time>2026-04-11T08:50:24.873Z</time></trkpt><trkpt lat="45.9612657" lon="10.3163569"><ele>335.0</ele><time>2026-04-11T08:50:25.874Z</time></trkpt><trkpt lat="45.9611649" lon="10.3162813"><ele>332.0</ele><time>2026-04-11T08:50:26.872Z</time></trkpt><trkpt lat="45.9610907" lon="10.3162128"><ele>329.0</ele><time>2026-04-11T08:50:27.873Z</time></trkpt><trkpt lat="45.9609995" lon="10.3161519"><ele>326.0</ele><time>2026-04-11T08:50:28.873Z</time></trkpt><trkpt lat="45.9609022" lon="10.3160856"><ele>323.0</ele><time>2026-04-11T08:50:29.872Z</time></trkpt><trkpt lat="45.9608346" lon="10.3160425"><ele>323.0</ele><time>2026-04-11T08:50:30.873Z</time></trkpt><trkpt lat="45.9607571" lon="10.3159746"><ele>323.0</ele><time>2026-04-11T08:50:31.874Z</time></trkpt><trkpt lat="45.9606939" lon="10.3159346"><ele>323.0</ele><time>2026-04-11T08:50:32.874Z</time></trkpt><trkpt lat="45.9606136" lon="10.3158583"><ele>323.0</ele><time>2026-04-11T08:50:33.873Z</time></trkpt><trkpt lat="45.9605081" lon="10.3158011"><ele>323.0</ele><time>2026-04-11T08:50:34.873Z</time></trkpt><trkpt lat="45.9604262" lon="10.3157458"><ele>323.0</ele><time>2026-04-11T08:50:35.874Z</time></trkpt><trkpt lat="45.9603439" lon="10.3157121"><ele>323.0</ele><time>2026-04-11T08:50:36.873Z</time></trkpt><trkpt lat="45.960269" lon="10.3156436"><ele>323.0</ele><time>2026-04-11T08:50:37.873Z</time></trkpt><trkpt lat="45.9601736" lon="10.3155776"><ele>323.0</ele><time>2026-04-11T08:50:38.873Z</time></trkpt><trkpt lat="45.9600932" lon="10.3155039"><ele>323.0</ele><time>2026-04-11T08:50:39.872Z</time></trkpt><trkpt lat="45.9600343" lon="10.315461"><ele>323.0</ele><time>2026-04-11T08:50:40.874Z</time></trkpt><trkpt lat="45.9599078" lon="10.3153474"><ele>322.2</ele><time>2026-04-11T08:50:42.872Z</time></trkpt><trkpt lat="45.9598067" lon="10.315243"><ele>321.4</ele><time>2026-04-11T08:50:44.414Z</time></trkpt><trkpt lat="45.959709" lon="10.3151407"><ele>320.59999999999997</ele><time>2026-04-11T08:50:45.873Z</time></trkpt><trkpt lat="45.9596469" lon="10.3150715"><ele>319.79999999999995</ele><time>2026-04-11T08:50:46.873Z</time></trkpt><trkpt lat="45.9595824" lon="10.3149965"><ele>319.0</ele><time>2026-04-11T08:50:47.873Z</time></trkpt><trkpt lat="45.9595176" lon="10.314925"><ele>319.0</ele><time>2026-04-11T08:50:48.873Z</time></trkpt><trkpt lat="45.9594207" lon="10.3148801"><ele>319.0</ele><time>2026-04-11T08:50:49.873Z</time></trkpt><trkpt lat="45.9593363" lon="10.3148793"><ele>319.0</ele><time>2026-04-11T08:50:50.872Z</time></trkpt><trkpt lat="45.959285" lon="10.3148138"><ele>319.0</ele><time>2026-04-11T08:50:51.874Z</time></trkpt><trkpt lat="45.959183" lon="10.3148039"><ele>319.0</ele><time>2026-04-11T08:50:52.873Z</time></trkpt><trkpt lat="45.9591054" lon="10.314821"><ele>319.0</ele><time>2026-04-11T08:50:53.874Z</time></trkpt><trkpt lat="45.9590177" lon="10.3147814"><ele>320.0</ele><time>2026-04-11T08:50:54.873Z</time></trkpt><trkpt lat="45.9589396" lon="10.3147149"><ele>321.0</ele><time>2026-04-11T08:50:55.873Z</time></trkpt><trkpt lat="45.9588741" lon="10.3145992"><ele>322.0</ele><time>2026-04-11T08:50:56.874Z</time></trkpt><trkpt lat="45.9588395" lon="10.3144972"><ele>323.0</ele><time>2026-04-11T08:50:57.873Z</time></trkpt><trkpt lat="45.9587994" lon="10.3143921"><ele>324.0</ele><time>2026-04-11T08:50:58.872Z</time></trkpt><trkpt lat="45.9587142" lon="10.3142017"><ele>324.0</ele><time>2026-04-11T08:50:59.873Z</time></trkpt><trkpt lat="45.9586303" lon="10.3140259"><ele>324.0</ele><time>2026-04-11T08:51:00.873Z</time></trkpt><trkpt lat="45.9585665" lon="10.3138363"><ele>324.0</ele><time>2026-04-11T08:51:01.873Z</time></trkpt><trkpt lat="45.9585095" lon="10.31364"><ele>324.0</ele><time>2026-04-11T08:51:02.872Z</time></trkpt><trkpt lat="45.9584867" lon="10.3134278"><ele>324.25</ele><time>2026-04-11T08:51:03.873Z</time></trkpt><trkpt lat="45.9584427" lon="10.3132345"><ele>324.5</ele><time>2026-04-11T08:51:04.872Z</time></trkpt><trkpt lat="45.9583846" lon="10.31305"><ele>324.75</ele><time>2026-04-11T08:51:05.873Z</time></trkpt><trkpt lat="45.9583616" lon="10.3128525"><ele>325.0</ele><time>2026-04-11T08:51:06.874Z</time></trkpt><trkpt lat="45.9583719" lon="10.312677"><ele>325.0</ele><time>2026-04-11T08:51:07.872Z</time></trkpt><trkpt lat="45.9583585" lon="10.3125044"><ele>325.0</ele><time>2026-04-11T08:51:08.873Z</time></trkpt><trkpt lat="45.9583569" lon="10.3123351"><ele>325.0</ele><time>2026-04-11T08:51:09.873Z</time></trkpt><trkpt lat="45.9583733" lon="10.3121933"><ele>325.0</ele><time>2026-04-11T08:51:10.873Z</time></trkpt><trkpt lat="45.9583845" lon="10.3120797"><ele>325.0</ele><time>2026-04-11T08:51:11.872Z</time></trkpt><trkpt lat="45.9584424" lon="10.311951"><ele>321.75</ele><time>2026-04-11T08:51:12.874Z</time></trkpt><trkpt lat="45.9586076" lon="10.3119559"><ele>318.5</ele><time>2026-04-11T08:51:13.873Z</time></trkpt><trkpt lat="45.9586791" lon="10.3118856"><ele>315.25</ele><time>2026-04-11T08:51:14.873Z</time></trkpt><trkpt lat="45.9587545" lon="10.3117793"><ele>312.0</ele><time>2026-04-11T08:51:15.872Z</time></trkpt><trkpt lat="45.9588104" lon="10.3116719"><ele>312.0</ele><time>2026-04-11T08:51:16.874Z</time></trkpt><trkpt lat="45.9588776" lon="10.3115588"><ele>312.0</ele><time>2026-04-11T08:51:17.873Z</time></trkpt><trkpt lat="45.9589463" lon="10.3114361"><ele>312.0</ele><time>2026-04-11T08:51:18.873Z</time></trkpt><trkpt lat="45.9589637" lon="10.3112247"><ele>312.0</ele><time>2026-04-11T08:51:19.873Z</time></trkpt><trkpt lat="45.9589448" lon="10.3109949"><ele>312.0</ele><time>2026-04-11T08:51:20.873Z</time></trkpt><trkpt lat="45.9589636" lon="10.3107871"><ele>312.0</ele><time>2026-04-11T08:51:21.873Z</time></trkpt><trkpt lat="45.9589906" lon="10.3106431"><ele>312.0</ele><time>2026-04-11T08:51:22.874Z</time></trkpt><trkpt lat="45.9589825" lon="10.3104709"><ele>312.0</ele><time>2026-04-11T08:51:23.873Z</time></trkpt><trkpt lat="45.9590059" lon="10.3102912"><ele>313.0</ele><time>2026-04-11T08:51:24.873Z</time></trkpt><trkpt lat="45.9588863" lon="10.3101681"><ele>314.0</ele><time>2026-04-11T08:51:25.874Z</time></trkpt><trkpt lat="45.958734" lon="10.3100239"><ele>315.0</ele><time>2026-04-11T08:51:26.872Z</time></trkpt><trkpt lat="45.9586401" lon="10.3098736"><ele>315.0</ele><time>2026-04-11T08:51:27.874Z</time></trkpt><trkpt lat="45.9585194" lon="10.3097903"><ele>315.0</ele><time>2026-04-11T08:51:28.873Z</time></trkpt><trkpt lat="45.9584101" lon="10.3096905"><ele>315.0</ele><time>2026-04-11T08:51:29.873Z</time></trkpt><trkpt lat="45.9583316" lon="10.3095963"><ele>315.0</ele><time>2026-04-11T08:51:30.872Z</time></trkpt><trkpt lat="45.9582764" lon="10.3094984"><ele>316.0</ele><time>2026-04-11T08:51:31.874Z</time></trkpt><trkpt lat="45.958228" lon="10.3094099"><ele>317.0</ele><time>2026-04-11T08:51:32.873Z</time></trkpt><trkpt lat="45.9582155" lon="10.3092303"><ele>318.0</ele><time>2026-04-11T08:51:33.873Z</time></trkpt><trkpt lat="45.9581748" lon="10.3090927"><ele>319.0</ele><time>2026-04-11T08:51:34.872Z</time></trkpt><trkpt lat="45.9582532" lon="10.3087556"><ele>319.0</ele><time>2026-04-11T08:51:35.873Z</time></trkpt><trkpt lat="45.9582783" lon="10.3085477"><ele>319.0</ele><time>2026-04-11T08:51:36.873Z</time></trkpt><trkpt lat="45.9582903" lon="10.3083117"><ele>319.0</ele><time>2026-04-11T08:51:37.873Z</time></trkpt><trkpt lat="45.9582539" lon="10.3080894"><ele>319.25</ele><time>2026-04-11T08:51:38.872Z</time></trkpt><trkpt lat="45.9582314" lon="10.3078885"><ele>319.5</ele><time>2026-04-11T08:51:39.874Z</time></trkpt><trkpt lat="45.958189" lon="10.3077005"><ele>319.75</ele><time>2026-04-11T08:51:40.873Z</time></trkpt><trkpt lat="45.9581364" lon="10.3075048"><ele>320.0</ele><time>2026-04-11T08:51:41.872Z</time></trkpt><trkpt lat="45.9581088" lon="10.3072877"><ele>320.5</ele><time>2026-04-11T08:51:42.872Z</time></trkpt><trkpt lat="45.9580585" lon="10.3070833"><ele>321.0</ele><time>2026-04-11T08:51:43.874Z</time></trkpt><trkpt lat="45.9580165" lon="10.3068986"><ele>321.5</ele><time>2026-04-11T08:51:44.873Z</time></trkpt><trkpt lat="45.9579486" lon="10.3067137"><ele>322.0</ele><time>2026-04-11T08:51:45.873Z</time></trkpt><trkpt lat="45.9578676" lon="10.3065589"><ele>323.0</ele><time>2026-04-11T08:51:46.873Z</time></trkpt><trkpt lat="45.9577952" lon="10.3064045"><ele>324.0</ele><time>2026-04-11T08:51:47.874Z</time></trkpt><trkpt lat="45.9577253" lon="10.306257"><ele>325.0</ele><time>2026-04-11T08:51:48.873Z</time></trkpt><trkpt lat="45.9576586" lon="10.3061601"><ele>326.0</ele><time>2026-04-11T08:51:49.874Z</time></trkpt><trkpt lat="45.9575554" lon="10.306029"><ele>327.5</ele><time>2026-04-11T08:51:50.872Z</time></trkpt><trkpt lat="45.9575022" lon="10.3058819"><ele>329.0</ele><time>2026-04-11T08:51:51.873Z</time></trkpt><trkpt lat="45.9574396" lon="10.3057317"><ele>330.5</ele><time>2026-04-11T08:51:52.873Z</time></trkpt><trkpt lat="45.9573538" lon="10.3055807"><ele>332.0</ele><time>2026-04-11T08:51:53.873Z</time></trkpt><trkpt lat="45.9572977" lon="10.3054489"><ele>332.5</ele><time>2026-04-11T08:51:54.873Z</time></trkpt><trkpt lat="45.9572617" lon="10.3053122"><ele>333.0</ele><time>2026-04-11T08:51:55.873Z</time></trkpt><trkpt lat="45.957238" lon="10.3052153"><ele>333.5</ele><time>2026-04-11T08:51:56.872Z</time></trkpt><trkpt lat="45.9572054" lon="10.3051224"><ele>334.0</ele><time>2026-04-11T08:51:57.873Z</time></trkpt><trkpt lat="45.9571691" lon="10.305007"><ele>334.5</ele><time>2026-04-11T08:51:59.873Z</time></trkpt><trkpt lat="45.957136" lon="10.3049271"><ele>335.0</ele><time>2026-04-11T08:52:01.873Z</time></trkpt><trkpt lat="45.9572738" lon="10.3048373"><ele>335.0</ele><time>2026-04-11T08:52:02.874Z</time></trkpt><trkpt lat="45.9573291" lon="10.3047496"><ele>335.0</ele><time>2026-04-11T08:52:03.873Z</time></trkpt><trkpt lat="45.9573643" lon="10.3046135"><ele>335.0</ele><time>2026-04-11T08:52:04.872Z</time></trkpt><trkpt lat="45.9573936" lon="10.3045216"><ele>335.0</ele><time>2026-04-11T08:52:05.873Z</time></trkpt><trkpt lat="45.9574337" lon="10.3044138"><ele>335.0</ele><time>2026-04-11T08:52:06.874Z</time></trkpt><trkpt lat="45.9574845" lon="10.3042511"><ele>332.0</ele><time>2026-04-11T08:52:08.872Z</time></trkpt></trkseg></trk></gpx>